<?xml version="1.0" encoding="UTF-8" standalone="no" ?>
<gpx xmlns="http://www.topografix.com/GPX/1/1" xmlns:xsi="http://www.w3.org/2001/XMLSchema-instance" xsi:schemaLocation="http://www.topografix.com/GPX/1/1 http://www.topografix.com/GPX/1/1/gpx.xsd" version="1.1" creator="VisuGPX - https://www.visugpx.com">
  <metadata>
    <name>tempo montagnes</name>
  </metadata>
  <trk>
    <name><![CDATA[tempo montagnes_1]]></name>
    <trkseg>
      <trkpt lat="43.46426" lon="2.34112">
        <ele>623</ele>
        <time>2019-05-05T10:43:10.000Z</time>
      </trkpt>
      <trkpt lat="43.46413" lon="2.34099">
        <ele>623</ele>
        <time>2019-05-05T10:43:06.000Z</time>
      </trkpt>
      <trkpt lat="43.46411" lon="2.34094">
        <ele>623</ele>
        <time>2019-05-05T10:43:05.000Z</time>
      </trkpt>
      <trkpt lat="43.46403" lon="2.34072">
        <ele>623</ele>
        <time>2019-05-05T10:43:01.000Z</time>
      </trkpt>
      <trkpt lat="43.46402" lon="2.34067">
        <ele>623</ele>
        <time>2019-05-05T10:43:00.000Z</time>
      </trkpt>
      <trkpt lat="43.46399" lon="2.34045">
        <ele>623</ele>
        <time>2019-05-05T10:42:57.000Z</time>
      </trkpt>
      <trkpt lat="43.46399" lon="2.34032">
        <ele>623</ele>
        <time>2019-05-05T10:42:55.000Z</time>
      </trkpt>
      <trkpt lat="43.464" lon="2.34022">
        <ele>623</ele>
        <time>2019-05-05T10:42:53.000Z</time>
      </trkpt>
      <trkpt lat="43.46396" lon="2.34004">
        <ele>623</ele>
        <time>2019-05-05T10:42:50.000Z</time>
      </trkpt>
      <trkpt lat="43.46394" lon="2.33998">
        <ele>623.40002441406</ele>
        <time>2019-05-05T10:42:49.000Z</time>
      </trkpt>
      <trkpt lat="43.46392" lon="2.33992">
        <ele>623.79998779297</ele>
        <time>2019-05-05T10:42:48.000Z</time>
      </trkpt>
      <trkpt lat="43.4639" lon="2.33986">
        <ele>624.20001220703</ele>
        <time>2019-05-05T10:42:47.000Z</time>
      </trkpt>
      <trkpt lat="43.46388" lon="2.33981">
        <ele>624.59997558594</ele>
        <time>2019-05-05T10:42:46.000Z</time>
      </trkpt>
      <trkpt lat="43.46386" lon="2.33974">
        <ele>625</ele>
        <time>2019-05-05T10:42:45.000Z</time>
      </trkpt>
      <trkpt lat="43.4638" lon="2.33961">
        <ele>625</ele>
        <time>2019-05-05T10:42:43.000Z</time>
      </trkpt>
      <trkpt lat="43.4637" lon="2.33941">
        <ele>625</ele>
        <time>2019-05-05T10:42:39.000Z</time>
      </trkpt>
      <trkpt lat="43.46367" lon="2.33937">
        <ele>625</ele>
        <time>2019-05-05T10:42:38.000Z</time>
      </trkpt>
      <trkpt lat="43.46355" lon="2.3392">
        <ele>625</ele>
        <time>2019-05-05T10:42:34.000Z</time>
      </trkpt>
      <trkpt lat="43.46349" lon="2.33912">
        <ele>625</ele>
        <time>2019-05-05T10:42:32.000Z</time>
      </trkpt>
      <trkpt lat="43.46338" lon="2.33901">
        <ele>625</ele>
        <time>2019-05-05T10:42:29.000Z</time>
      </trkpt>
      <trkpt lat="43.46321" lon="2.33881">
        <ele>625</ele>
        <time>2019-05-05T10:42:24.000Z</time>
      </trkpt>
      <trkpt lat="43.46313" lon="2.33872">
        <ele>625</ele>
        <time>2019-05-05T10:42:22.000Z</time>
      </trkpt>
      <trkpt lat="43.4631" lon="2.3387">
        <ele>624.59997558594</ele>
        <time>2019-05-05T10:42:21.000Z</time>
      </trkpt>
      <trkpt lat="43.46307" lon="2.33868">
        <ele>624.20001220703</ele>
        <time>2019-05-05T10:42:20.000Z</time>
      </trkpt>
      <trkpt lat="43.46304" lon="2.33866">
        <ele>623.59997558594</ele>
        <time>2019-05-05T10:42:19.000Z</time>
      </trkpt>
      <trkpt lat="43.463" lon="2.33862">
        <ele>622.79998779297</ele>
        <time>2019-05-05T10:42:17.000Z</time>
      </trkpt>
      <trkpt lat="43.46283" lon="2.33848">
        <ele>622.79998779297</ele>
        <time>2019-05-05T10:42:12.000Z</time>
      </trkpt>
      <trkpt lat="43.46266" lon="2.33829">
        <ele>622.79998779297</ele>
        <time>2019-05-05T10:42:07.000Z</time>
      </trkpt>
      <trkpt lat="43.46248" lon="2.33804">
        <ele>622.79998779297</ele>
        <time>2019-05-05T10:42:01.000Z</time>
      </trkpt>
      <trkpt lat="43.4624" lon="2.33782">
        <ele>622.79998779297</ele>
        <time>2019-05-05T10:41:56.000Z</time>
      </trkpt>
      <trkpt lat="43.46234" lon="2.33767">
        <ele>622.79998779297</ele>
        <time>2019-05-05T10:41:53.000Z</time>
      </trkpt>
      <trkpt lat="43.46231" lon="2.3376">
        <ele>622.79998779297</ele>
        <time>2019-05-05T10:41:52.000Z</time>
      </trkpt>
      <trkpt lat="43.46217" lon="2.33727">
        <ele>622.79998779297</ele>
        <time>2019-05-05T10:41:46.000Z</time>
      </trkpt>
      <trkpt lat="43.46208" lon="2.33707">
        <ele>622.79998779297</ele>
        <time>2019-05-05T10:41:42.000Z</time>
      </trkpt>
      <trkpt lat="43.46205" lon="2.337">
        <ele>622.79998779297</ele>
        <time>2019-05-05T10:41:41.000Z</time>
      </trkpt>
      <trkpt lat="43.46197" lon="2.3367">
        <ele>622.79998779297</ele>
        <time>2019-05-05T10:41:37.000Z</time>
      </trkpt>
      <trkpt lat="43.46188" lon="2.33643">
        <ele>622.79998779297</ele>
        <time>2019-05-05T10:41:32.000Z</time>
      </trkpt>
      <trkpt lat="43.46181" lon="2.33633">
        <ele>622.79998779297</ele>
        <time>2019-05-05T10:41:29.000Z</time>
      </trkpt>
      <trkpt lat="43.46177" lon="2.3363">
        <ele>623.20001220703</ele>
        <time>2019-05-05T10:41:28.000Z</time>
      </trkpt>
      <trkpt lat="43.46174" lon="2.33627">
        <ele>623.59997558594</ele>
        <time>2019-05-05T10:41:27.000Z</time>
      </trkpt>
      <trkpt lat="43.46169" lon="2.33624">
        <ele>624</ele>
        <time>2019-05-05T10:41:26.000Z</time>
      </trkpt>
      <trkpt lat="43.46164" lon="2.33621">
        <ele>624.59997558594</ele>
        <time>2019-05-05T10:41:25.000Z</time>
      </trkpt>
      <trkpt lat="43.4616" lon="2.33618">
        <ele>625</ele>
        <time>2019-05-05T10:41:24.000Z</time>
      </trkpt>
      <trkpt lat="43.46153" lon="2.3361">
        <ele>625</ele>
        <time>2019-05-05T10:41:22.000Z</time>
      </trkpt>
      <trkpt lat="43.46144" lon="2.33597">
        <ele>625</ele>
        <time>2019-05-05T10:41:19.000Z</time>
      </trkpt>
      <trkpt lat="43.46139" lon="2.33588">
        <ele>625</ele>
        <time>2019-05-05T10:41:17.000Z</time>
      </trkpt>
      <trkpt lat="43.46136" lon="2.33583">
        <ele>624.40002441406</ele>
        <time>2019-05-05T10:41:16.000Z</time>
      </trkpt>
      <trkpt lat="43.46134" lon="2.33578">
        <ele>624</ele>
        <time>2019-05-05T10:41:15.000Z</time>
      </trkpt>
      <trkpt lat="43.46132" lon="2.33573">
        <ele>623.59997558594</ele>
        <time>2019-05-05T10:41:14.000Z</time>
      </trkpt>
      <trkpt lat="43.4613" lon="2.33569">
        <ele>623.20001220703</ele>
        <time>2019-05-05T10:41:13.000Z</time>
      </trkpt>
      <trkpt lat="43.46121" lon="2.33552">
        <ele>622.79998779297</ele>
        <time>2019-05-05T10:41:09.000Z</time>
      </trkpt>
      <trkpt lat="43.46104" lon="2.33535">
        <ele>622.79998779297</ele>
        <time>2019-05-05T10:41:04.000Z</time>
      </trkpt>
      <trkpt lat="43.46089" lon="2.33523">
        <ele>622.79998779297</ele>
        <time>2019-05-05T10:40:59.000Z</time>
      </trkpt>
      <trkpt lat="43.46076" lon="2.33511">
        <ele>622.79998779297</ele>
        <time>2019-05-05T10:40:55.000Z</time>
      </trkpt>
      <trkpt lat="43.46071" lon="2.33509">
        <ele>622.79998779297</ele>
        <time>2019-05-05T10:40:54.000Z</time>
      </trkpt>
      <trkpt lat="43.46056" lon="2.33503">
        <ele>622.79998779297</ele>
        <time>2019-05-05T10:40:51.000Z</time>
      </trkpt>
      <trkpt lat="43.46031" lon="2.33506">
        <ele>622.79998779297</ele>
        <time>2019-05-05T10:40:47.000Z</time>
      </trkpt>
      <trkpt lat="43.4602" lon="2.33505">
        <ele>622.79998779297</ele>
        <time>2019-05-05T10:40:44.000Z</time>
      </trkpt>
      <trkpt lat="43.46014" lon="2.33503">
        <ele>622.79998779297</ele>
        <time>2019-05-05T10:40:43.000Z</time>
      </trkpt>
      <trkpt lat="43.46007" lon="2.33502">
        <ele>622.79998779297</ele>
        <time>2019-05-05T10:40:41.000Z</time>
      </trkpt>
      <trkpt lat="43.46003" lon="2.335">
        <ele>622.79998779297</ele>
        <time>2019-05-05T10:40:40.000Z</time>
      </trkpt>
      <trkpt lat="43.46001" lon="2.33499">
        <ele>622.79998779297</ele>
        <time>2019-05-05T10:40:39.000Z</time>
      </trkpt>
      <trkpt lat="43.45999" lon="2.33498">
        <ele>623.20001220703</ele>
        <time>2019-05-05T10:40:38.000Z</time>
      </trkpt>
      <trkpt lat="43.45995" lon="2.33496">
        <ele>623.59997558594</ele>
        <time>2019-05-05T10:40:37.000Z</time>
      </trkpt>
      <trkpt lat="43.45993" lon="2.33495">
        <ele>624</ele>
        <time>2019-05-05T10:40:36.000Z</time>
      </trkpt>
      <trkpt lat="43.45991" lon="2.33494">
        <ele>624.40002441406</ele>
        <time>2019-05-05T10:40:35.000Z</time>
      </trkpt>
      <trkpt lat="43.45986" lon="2.33487">
        <ele>625</ele>
        <time>2019-05-05T10:40:33.000Z</time>
      </trkpt>
      <trkpt lat="43.45977" lon="2.33472">
        <ele>625</ele>
        <time>2019-05-05T10:40:28.000Z</time>
      </trkpt>
      <trkpt lat="43.45973" lon="2.33459">
        <ele>625</ele>
        <time>2019-05-05T10:40:23.000Z</time>
      </trkpt>
      <trkpt lat="43.45969" lon="2.33443">
        <ele>625</ele>
        <time>2019-05-05T10:40:17.000Z</time>
      </trkpt>
      <trkpt lat="43.45966" lon="2.33435">
        <ele>625</ele>
        <time>2019-05-05T10:40:14.000Z</time>
      </trkpt>
      <trkpt lat="43.45965" lon="2.33426">
        <ele>625</ele>
        <time>2019-05-05T10:40:11.000Z</time>
      </trkpt>
      <trkpt lat="43.45963" lon="2.3341">
        <ele>625</ele>
        <time>2019-05-05T10:40:06.000Z</time>
      </trkpt>
      <trkpt lat="43.45964" lon="2.33407">
        <ele>625</ele>
        <time>2019-05-05T10:40:05.000Z</time>
      </trkpt>
      <trkpt lat="43.45964" lon="2.33403">
        <ele>624.59997558594</ele>
        <time>2019-05-05T10:40:04.000Z</time>
      </trkpt>
      <trkpt lat="43.45967" lon="2.33398">
        <ele>623.59997558594</ele>
        <time>2019-05-05T10:40:02.000Z</time>
      </trkpt>
      <trkpt lat="43.45967" lon="2.33397">
        <ele>623.20001220703</ele>
        <time>2019-05-05T10:40:01.000Z</time>
      </trkpt>
      <trkpt lat="43.45966" lon="2.33396">
        <ele>622.79998779297</ele>
        <time>2019-05-05T10:40:00.000Z</time>
      </trkpt>
      <trkpt lat="43.45964" lon="2.33393">
        <ele>622.79998779297</ele>
        <time>2019-05-05T10:39:58.000Z</time>
      </trkpt>
      <trkpt lat="43.45958" lon="2.33381">
        <ele>622.79998779297</ele>
        <time>2019-05-05T10:39:53.000Z</time>
      </trkpt>
      <trkpt lat="43.45957" lon="2.33379">
        <ele>622.79998779297</ele>
        <time>2019-05-05T10:39:52.000Z</time>
      </trkpt>
      <trkpt lat="43.45952" lon="2.33377">
        <ele>622.79998779297</ele>
        <time>2019-05-05T10:39:50.000Z</time>
      </trkpt>
      <trkpt lat="43.45951" lon="2.33377">
        <ele>622.79998779297</ele>
        <time>2019-05-05T10:39:49.000Z</time>
      </trkpt>
      <trkpt lat="43.4595" lon="2.33378">
        <ele>622.79998779297</ele>
        <time>2019-05-05T10:39:48.000Z</time>
      </trkpt>
      <trkpt lat="43.45949" lon="2.33378">
        <ele>622.79998779297</ele>
        <time>2019-05-05T10:39:47.000Z</time>
      </trkpt>
      <trkpt lat="43.45946" lon="2.33372">
        <ele>622.79998779297</ele>
        <time>2019-05-05T10:39:42.000Z</time>
      </trkpt>
      <trkpt lat="43.45947" lon="2.33371">
        <ele>622.79998779297</ele>
        <time>2019-05-05T10:39:41.000Z</time>
      </trkpt>
      <trkpt lat="43.45957" lon="2.33367">
        <ele>622.79998779297</ele>
        <time>2019-05-05T10:39:36.000Z</time>
      </trkpt>
      <trkpt lat="43.45958" lon="2.33365">
        <ele>622.79998779297</ele>
        <time>2019-05-05T10:39:35.000Z</time>
      </trkpt>
      <trkpt lat="43.45961" lon="2.33356">
        <ele>622.79998779297</ele>
        <time>2019-05-05T10:39:31.000Z</time>
      </trkpt>
      <trkpt lat="43.45959" lon="2.33351">
        <ele>622.79998779297</ele>
        <time>2019-05-05T10:39:29.000Z</time>
      </trkpt>
      <trkpt lat="43.45958" lon="2.33349">
        <ele>622.79998779297</ele>
        <time>2019-05-05T10:39:28.000Z</time>
      </trkpt>
      <trkpt lat="43.45959" lon="2.33343">
        <ele>622.79998779297</ele>
        <time>2019-05-05T10:39:26.000Z</time>
      </trkpt>
      <trkpt lat="43.45958" lon="2.33341">
        <ele>622.79998779297</ele>
        <time>2019-05-05T10:39:25.000Z</time>
      </trkpt>
      <trkpt lat="43.45955" lon="2.33314">
        <ele>622.79998779297</ele>
        <time>2019-05-05T10:39:11.000Z</time>
      </trkpt>
      <trkpt lat="43.45955" lon="2.33312">
        <ele>623.20001220703</ele>
        <time>2019-05-05T10:39:10.000Z</time>
      </trkpt>
      <trkpt lat="43.45956" lon="2.3331">
        <ele>623.59997558594</ele>
        <time>2019-05-05T10:39:09.000Z</time>
      </trkpt>
      <trkpt lat="43.45955" lon="2.33305">
        <ele>624</ele>
        <time>2019-05-05T10:39:08.000Z</time>
      </trkpt>
      <trkpt lat="43.45955" lon="2.33299">
        <ele>624.59997558594</ele>
        <time>2019-05-05T10:39:07.000Z</time>
      </trkpt>
      <trkpt lat="43.4596" lon="2.33296">
        <ele>625</ele>
        <time>2019-05-05T10:39:04.000Z</time>
      </trkpt>
      <trkpt lat="43.45962" lon="2.33296">
        <ele>625</ele>
        <time>2019-05-05T10:39:03.000Z</time>
      </trkpt>
      <trkpt lat="43.45964" lon="2.33296">
        <ele>625.79998779297</ele>
        <time>2019-05-05T10:39:02.000Z</time>
      </trkpt>
      <trkpt lat="43.45967" lon="2.33296">
        <ele>626.40002441406</ele>
        <time>2019-05-05T10:39:01.000Z</time>
      </trkpt>
      <trkpt lat="43.45976" lon="2.33291">
        <ele>627.20001220703</ele>
        <time>2019-05-05T10:38:59.000Z</time>
      </trkpt>
      <trkpt lat="43.45979" lon="2.33289">
        <ele>627.20001220703</ele>
        <time>2019-05-05T10:38:58.000Z</time>
      </trkpt>
      <trkpt lat="43.45985" lon="2.33287">
        <ele>627.20001220703</ele>
        <time>2019-05-05T10:38:57.000Z</time>
      </trkpt>
      <trkpt lat="43.45988" lon="2.33284">
        <ele>627.79998779297</ele>
        <time>2019-05-05T10:38:56.000Z</time>
      </trkpt>
      <trkpt lat="43.45989" lon="2.33281">
        <ele>628.40002441406</ele>
        <time>2019-05-05T10:38:55.000Z</time>
      </trkpt>
      <trkpt lat="43.45991" lon="2.33278">
        <ele>629</ele>
        <time>2019-05-05T10:38:54.000Z</time>
      </trkpt>
      <trkpt lat="43.45993" lon="2.33276">
        <ele>629.59997558594</ele>
        <time>2019-05-05T10:38:53.000Z</time>
      </trkpt>
      <trkpt lat="43.45994" lon="2.33273">
        <ele>630.20001220703</ele>
        <time>2019-05-05T10:38:52.000Z</time>
      </trkpt>
      <trkpt lat="43.45996" lon="2.33271">
        <ele>630.79998779297</ele>
        <time>2019-05-05T10:38:51.000Z</time>
      </trkpt>
      <trkpt lat="43.45997" lon="2.33269">
        <ele>631.40002441406</ele>
        <time>2019-05-05T10:38:50.000Z</time>
      </trkpt>
      <trkpt lat="43.45998" lon="2.33267">
        <ele>631.79998779297</ele>
        <time>2019-05-05T10:38:49.000Z</time>
      </trkpt>
      <trkpt lat="43.46" lon="2.33265">
        <ele>632.40002441406</ele>
        <time>2019-05-05T10:38:48.000Z</time>
      </trkpt>
      <trkpt lat="43.46002" lon="2.33263">
        <ele>632.79998779297</ele>
        <time>2019-05-05T10:38:47.000Z</time>
      </trkpt>
      <trkpt lat="43.46003" lon="2.33261">
        <ele>633.40002441406</ele>
        <time>2019-05-05T10:38:46.000Z</time>
      </trkpt>
      <trkpt lat="43.46005" lon="2.33259">
        <ele>633.79998779297</ele>
        <time>2019-05-05T10:38:45.000Z</time>
      </trkpt>
      <trkpt lat="43.46007" lon="2.33257">
        <ele>634.20001220703</ele>
        <time>2019-05-05T10:38:44.000Z</time>
      </trkpt>
      <trkpt lat="43.46009" lon="2.33257">
        <ele>634.79998779297</ele>
        <time>2019-05-05T10:38:43.000Z</time>
      </trkpt>
      <trkpt lat="43.46011" lon="2.33254">
        <ele>635.40002441406</ele>
        <time>2019-05-05T10:38:42.000Z</time>
      </trkpt>
      <trkpt lat="43.46013" lon="2.33253">
        <ele>636</ele>
        <time>2019-05-05T10:38:41.000Z</time>
      </trkpt>
      <trkpt lat="43.46016" lon="2.33251">
        <ele>636.40002441406</ele>
        <time>2019-05-05T10:38:40.000Z</time>
      </trkpt>
      <trkpt lat="43.46019" lon="2.3325">
        <ele>637</ele>
        <time>2019-05-05T10:38:39.000Z</time>
      </trkpt>
      <trkpt lat="43.46022" lon="2.33249">
        <ele>638.20001220703</ele>
        <time>2019-05-05T10:38:38.000Z</time>
      </trkpt>
      <trkpt lat="43.46025" lon="2.33247">
        <ele>638.79998779297</ele>
        <time>2019-05-05T10:38:37.000Z</time>
      </trkpt>
      <trkpt lat="43.46028" lon="2.33245">
        <ele>639.40002441406</ele>
        <time>2019-05-05T10:38:36.000Z</time>
      </trkpt>
      <trkpt lat="43.46031" lon="2.33242">
        <ele>640</ele>
        <time>2019-05-05T10:38:35.000Z</time>
      </trkpt>
      <trkpt lat="43.46032" lon="2.33241">
        <ele>640.40002441406</ele>
        <time>2019-05-05T10:38:34.000Z</time>
      </trkpt>
      <trkpt lat="43.46034" lon="2.33238">
        <ele>641</ele>
        <time>2019-05-05T10:38:33.000Z</time>
      </trkpt>
      <trkpt lat="43.46035" lon="2.33235">
        <ele>641.59997558594</ele>
        <time>2019-05-05T10:38:32.000Z</time>
      </trkpt>
      <trkpt lat="43.46037" lon="2.33234">
        <ele>642.20001220703</ele>
        <time>2019-05-05T10:38:31.000Z</time>
      </trkpt>
      <trkpt lat="43.46039" lon="2.33232">
        <ele>643</ele>
        <time>2019-05-05T10:38:30.000Z</time>
      </trkpt>
      <trkpt lat="43.4604" lon="2.3323">
        <ele>643.59997558594</ele>
        <time>2019-05-05T10:38:29.000Z</time>
      </trkpt>
      <trkpt lat="43.46041" lon="2.33227">
        <ele>644.20001220703</ele>
        <time>2019-05-05T10:38:28.000Z</time>
      </trkpt>
      <trkpt lat="43.46043" lon="2.33216">
        <ele>646.40002441406</ele>
        <time>2019-05-05T10:38:24.000Z</time>
      </trkpt>
      <trkpt lat="43.46044" lon="2.33214">
        <ele>646.79998779297</ele>
        <time>2019-05-05T10:38:23.000Z</time>
      </trkpt>
      <trkpt lat="43.46044" lon="2.33212">
        <ele>647.20001220703</ele>
        <time>2019-05-05T10:38:22.000Z</time>
      </trkpt>
      <trkpt lat="43.46045" lon="2.3321">
        <ele>647.59997558594</ele>
        <time>2019-05-05T10:38:21.000Z</time>
      </trkpt>
      <trkpt lat="43.46046" lon="2.33208">
        <ele>647.59997558594</ele>
        <time>2019-05-05T10:38:20.000Z</time>
      </trkpt>
      <trkpt lat="43.46052" lon="2.33203">
        <ele>650</ele>
        <time>2019-05-05T10:38:13.000Z</time>
      </trkpt>
      <trkpt lat="43.46054" lon="2.332">
        <ele>650.59997558594</ele>
        <time>2019-05-05T10:38:12.000Z</time>
      </trkpt>
      <trkpt lat="43.46055" lon="2.33199">
        <ele>651.20001220703</ele>
        <time>2019-05-05T10:38:11.000Z</time>
      </trkpt>
      <trkpt lat="43.46055" lon="2.33197">
        <ele>651.59997558594</ele>
        <time>2019-05-05T10:38:10.000Z</time>
      </trkpt>
      <trkpt lat="43.46068" lon="2.33174">
        <ele>659.59997558594</ele>
        <time>2019-05-05T10:37:55.000Z</time>
      </trkpt>
      <trkpt lat="43.46068" lon="2.33172">
        <ele>660.20001220703</ele>
        <time>2019-05-05T10:37:54.000Z</time>
      </trkpt>
      <trkpt lat="43.46069" lon="2.33172">
        <ele>660.79998779297</ele>
        <time>2019-05-05T10:37:53.000Z</time>
      </trkpt>
      <trkpt lat="43.4607" lon="2.33171">
        <ele>661.40002441406</ele>
        <time>2019-05-05T10:37:52.000Z</time>
      </trkpt>
      <trkpt lat="43.4607" lon="2.3317">
        <ele>662</ele>
        <time>2019-05-05T10:37:51.000Z</time>
      </trkpt>
      <trkpt lat="43.46071" lon="2.33168">
        <ele>662.40002441406</ele>
        <time>2019-05-05T10:37:50.000Z</time>
      </trkpt>
      <trkpt lat="43.46073" lon="2.33166">
        <ele>663</ele>
        <time>2019-05-05T10:37:49.000Z</time>
      </trkpt>
      <trkpt lat="43.46074" lon="2.33164">
        <ele>664</ele>
        <time>2019-05-05T10:37:48.000Z</time>
      </trkpt>
      <trkpt lat="43.46076" lon="2.33161">
        <ele>664.59997558594</ele>
        <time>2019-05-05T10:37:47.000Z</time>
      </trkpt>
      <trkpt lat="43.46077" lon="2.33158">
        <ele>665</ele>
        <time>2019-05-05T10:37:46.000Z</time>
      </trkpt>
      <trkpt lat="43.4608" lon="2.33155">
        <ele>665.59997558594</ele>
        <time>2019-05-05T10:37:45.000Z</time>
      </trkpt>
      <trkpt lat="43.46084" lon="2.33151">
        <ele>666.20001220703</ele>
        <time>2019-05-05T10:37:44.000Z</time>
      </trkpt>
      <trkpt lat="43.46088" lon="2.33146">
        <ele>666.59997558594</ele>
        <time>2019-05-05T10:37:43.000Z</time>
      </trkpt>
      <trkpt lat="43.46092" lon="2.33141">
        <ele>667.20001220703</ele>
        <time>2019-05-05T10:37:42.000Z</time>
      </trkpt>
      <trkpt lat="43.46096" lon="2.33135">
        <ele>667.59997558594</ele>
        <time>2019-05-05T10:37:41.000Z</time>
      </trkpt>
      <trkpt lat="43.46098" lon="2.33131">
        <ele>668</ele>
        <time>2019-05-05T10:37:40.000Z</time>
      </trkpt>
      <trkpt lat="43.461" lon="2.33127">
        <ele>668</ele>
        <time>2019-05-05T10:37:39.000Z</time>
      </trkpt>
      <trkpt lat="43.46104" lon="2.33112">
        <ele>668</ele>
        <time>2019-05-05T10:37:35.000Z</time>
      </trkpt>
      <trkpt lat="43.46114" lon="2.33093">
        <ele>668</ele>
        <time>2019-05-05T10:37:28.000Z</time>
      </trkpt>
      <trkpt lat="43.46122" lon="2.33088">
        <ele>668</ele>
        <time>2019-05-05T10:37:24.000Z</time>
      </trkpt>
      <trkpt lat="43.46123" lon="2.33082">
        <ele>668</ele>
        <time>2019-05-05T10:37:22.000Z</time>
      </trkpt>
      <trkpt lat="43.46124" lon="2.3308">
        <ele>668</ele>
        <time>2019-05-05T10:37:21.000Z</time>
      </trkpt>
      <trkpt lat="43.46126" lon="2.3308">
        <ele>667.59997558594</ele>
        <time>2019-05-05T10:37:20.000Z</time>
      </trkpt>
      <trkpt lat="43.46127" lon="2.33079">
        <ele>667.20001220703</ele>
        <time>2019-05-05T10:37:19.000Z</time>
      </trkpt>
      <trkpt lat="43.46128" lon="2.33079">
        <ele>666.79998779297</ele>
        <time>2019-05-05T10:37:18.000Z</time>
      </trkpt>
      <trkpt lat="43.46129" lon="2.3308">
        <ele>666.40002441406</ele>
        <time>2019-05-05T10:37:17.000Z</time>
      </trkpt>
      <trkpt lat="43.46135" lon="2.33086">
        <ele>666</ele>
        <time>2019-05-05T10:37:11.000Z</time>
      </trkpt>
      <trkpt lat="43.46138" lon="2.33088">
        <ele>666</ele>
        <time>2019-05-05T10:37:08.000Z</time>
      </trkpt>
      <trkpt lat="43.46139" lon="2.33089">
        <ele>665.59997558594</ele>
        <time>2019-05-05T10:37:07.000Z</time>
      </trkpt>
      <trkpt lat="43.46146" lon="2.33096">
        <ele>664</ele>
        <time>2019-05-05T10:37:02.000Z</time>
      </trkpt>
      <trkpt lat="43.46146" lon="2.33096">
        <ele>663.59997558594</ele>
        <time>2019-05-05T10:37:01.000Z</time>
      </trkpt>
      <trkpt lat="43.46184" lon="2.33142">
        <ele>657.79998779297</ele>
        <time>2019-05-05T10:36:13.000Z</time>
      </trkpt>
      <trkpt lat="43.46185" lon="2.33143">
        <ele>657.79998779297</ele>
        <time>2019-05-05T10:36:12.000Z</time>
      </trkpt>
      <trkpt lat="43.46194" lon="2.33153">
        <ele>657</ele>
        <time>2019-05-05T10:36:01.000Z</time>
      </trkpt>
      <trkpt lat="43.46194" lon="2.33153">
        <ele>656.59997558594</ele>
        <time>2019-05-05T10:36:00.000Z</time>
      </trkpt>
      <trkpt lat="43.46197" lon="2.33155">
        <ele>655.79998779297</ele>
        <time>2019-05-05T10:35:58.000Z</time>
      </trkpt>
      <trkpt lat="43.46201" lon="2.33159">
        <ele>655.79998779297</ele>
        <time>2019-05-05T10:35:54.000Z</time>
      </trkpt>
      <trkpt lat="43.46207" lon="2.33165">
        <ele>653.79998779297</ele>
        <time>2019-05-05T10:35:48.000Z</time>
      </trkpt>
      <trkpt lat="43.46212" lon="2.33171">
        <ele>653.79998779297</ele>
        <time>2019-05-05T10:35:42.000Z</time>
      </trkpt>
      <trkpt lat="43.46213" lon="2.33172">
        <ele>653.79998779297</ele>
        <time>2019-05-05T10:35:41.000Z</time>
      </trkpt>
      <trkpt lat="43.46216" lon="2.33175">
        <ele>653.79998779297</ele>
        <time>2019-05-05T10:35:38.000Z</time>
      </trkpt>
      <trkpt lat="43.46218" lon="2.33177">
        <ele>653.40002441406</ele>
        <time>2019-05-05T10:35:37.000Z</time>
      </trkpt>
      <trkpt lat="43.4622" lon="2.33179">
        <ele>653</ele>
        <time>2019-05-05T10:35:36.000Z</time>
      </trkpt>
      <trkpt lat="43.46222" lon="2.33183">
        <ele>651.79998779297</ele>
        <time>2019-05-05T10:35:33.000Z</time>
      </trkpt>
      <trkpt lat="43.46223" lon="2.33183">
        <ele>651.79998779297</ele>
        <time>2019-05-05T10:35:32.000Z</time>
      </trkpt>
      <trkpt lat="43.46226" lon="2.33187">
        <ele>651.79998779297</ele>
        <time>2019-05-05T10:35:28.000Z</time>
      </trkpt>
      <trkpt lat="43.4623" lon="2.33191">
        <ele>651.79998779297</ele>
        <time>2019-05-05T10:35:25.000Z</time>
      </trkpt>
      <trkpt lat="43.46231" lon="2.33194">
        <ele>651.79998779297</ele>
        <time>2019-05-05T10:35:23.000Z</time>
      </trkpt>
      <trkpt lat="43.46233" lon="2.33196">
        <ele>651.79998779297</ele>
        <time>2019-05-05T10:35:22.000Z</time>
      </trkpt>
      <trkpt lat="43.46233" lon="2.33197">
        <ele>651.79998779297</ele>
        <time>2019-05-05T10:35:21.000Z</time>
      </trkpt>
      <trkpt lat="43.46234" lon="2.332">
        <ele>651.79998779297</ele>
        <time>2019-05-05T10:35:20.000Z</time>
      </trkpt>
      <trkpt lat="43.46235" lon="2.33201">
        <ele>651.20001220703</ele>
        <time>2019-05-05T10:35:19.000Z</time>
      </trkpt>
      <trkpt lat="43.46236" lon="2.33203">
        <ele>650.79998779297</ele>
        <time>2019-05-05T10:35:18.000Z</time>
      </trkpt>
      <trkpt lat="43.46238" lon="2.33205">
        <ele>650.40002441406</ele>
        <time>2019-05-05T10:35:17.000Z</time>
      </trkpt>
      <trkpt lat="43.46238" lon="2.33206">
        <ele>650</ele>
        <time>2019-05-05T10:35:16.000Z</time>
      </trkpt>
      <trkpt lat="43.4624" lon="2.33209">
        <ele>649.59997558594</ele>
        <time>2019-05-05T10:35:14.000Z</time>
      </trkpt>
      <trkpt lat="43.46244" lon="2.33214">
        <ele>649.59997558594</ele>
        <time>2019-05-05T10:35:11.000Z</time>
      </trkpt>
      <trkpt lat="43.46248" lon="2.33223">
        <ele>649.59997558594</ele>
        <time>2019-05-05T10:35:04.000Z</time>
      </trkpt>
      <trkpt lat="43.46249" lon="2.33224">
        <ele>649.59997558594</ele>
        <time>2019-05-05T10:35:03.000Z</time>
      </trkpt>
      <trkpt lat="43.4625" lon="2.33226">
        <ele>649.59997558594</ele>
        <time>2019-05-05T10:35:02.000Z</time>
      </trkpt>
      <trkpt lat="43.46251" lon="2.33226">
        <ele>649.59997558594</ele>
        <time>2019-05-05T10:35:01.000Z</time>
      </trkpt>
      <trkpt lat="43.46252" lon="2.33228">
        <ele>649.20001220703</ele>
        <time>2019-05-05T10:35:00.000Z</time>
      </trkpt>
      <trkpt lat="43.46253" lon="2.33229">
        <ele>648.79998779297</ele>
        <time>2019-05-05T10:34:59.000Z</time>
      </trkpt>
      <trkpt lat="43.46253" lon="2.33231">
        <ele>648.40002441406</ele>
        <time>2019-05-05T10:34:58.000Z</time>
      </trkpt>
      <trkpt lat="43.46255" lon="2.33233">
        <ele>647.59997558594</ele>
        <time>2019-05-05T10:34:56.000Z</time>
      </trkpt>
      <trkpt lat="43.46261" lon="2.3324">
        <ele>647.59997558594</ele>
        <time>2019-05-05T10:34:50.000Z</time>
      </trkpt>
      <trkpt lat="43.46269" lon="2.33247">
        <ele>647.59997558594</ele>
        <time>2019-05-05T10:34:46.000Z</time>
      </trkpt>
      <trkpt lat="43.46271" lon="2.33248">
        <ele>648</ele>
        <time>2019-05-05T10:34:45.000Z</time>
      </trkpt>
      <trkpt lat="43.46273" lon="2.3325">
        <ele>648.59997558594</ele>
        <time>2019-05-05T10:34:44.000Z</time>
      </trkpt>
      <trkpt lat="43.46274" lon="2.33253">
        <ele>649</ele>
        <time>2019-05-05T10:34:43.000Z</time>
      </trkpt>
      <trkpt lat="43.46274" lon="2.33258">
        <ele>649.59997558594</ele>
        <time>2019-05-05T10:34:42.000Z</time>
      </trkpt>
      <trkpt lat="43.46275" lon="2.33269">
        <ele>650</ele>
        <time>2019-05-05T10:34:40.000Z</time>
      </trkpt>
      <trkpt lat="43.46276" lon="2.33274">
        <ele>651</ele>
        <time>2019-05-05T10:34:39.000Z</time>
      </trkpt>
      <trkpt lat="43.46277" lon="2.33279">
        <ele>652</ele>
        <time>2019-05-05T10:34:38.000Z</time>
      </trkpt>
      <trkpt lat="43.46281" lon="2.33284">
        <ele>652.79998779297</ele>
        <time>2019-05-05T10:34:37.000Z</time>
      </trkpt>
      <trkpt lat="43.46284" lon="2.33286">
        <ele>653.79998779297</ele>
        <time>2019-05-05T10:34:36.000Z</time>
      </trkpt>
      <trkpt lat="43.46289" lon="2.33287">
        <ele>654.79998779297</ele>
        <time>2019-05-05T10:34:35.000Z</time>
      </trkpt>
      <trkpt lat="43.46295" lon="2.33287">
        <ele>655.59997558594</ele>
        <time>2019-05-05T10:34:34.000Z</time>
      </trkpt>
      <trkpt lat="43.46301" lon="2.33287">
        <ele>656.40002441406</ele>
        <time>2019-05-05T10:34:33.000Z</time>
      </trkpt>
      <trkpt lat="43.46307" lon="2.33287">
        <ele>657.59997558594</ele>
        <time>2019-05-05T10:34:32.000Z</time>
      </trkpt>
      <trkpt lat="43.46314" lon="2.33288">
        <ele>657.59997558594</ele>
        <time>2019-05-05T10:34:31.000Z</time>
      </trkpt>
      <trkpt lat="43.4633" lon="2.33293">
        <ele>657.59997558594</ele>
        <time>2019-05-05T10:34:27.000Z</time>
      </trkpt>
      <trkpt lat="43.46336" lon="2.33288">
        <ele>657.59997558594</ele>
        <time>2019-05-05T10:34:24.000Z</time>
      </trkpt>
      <trkpt lat="43.46339" lon="2.33282">
        <ele>658.40002441406</ele>
        <time>2019-05-05T10:34:23.000Z</time>
      </trkpt>
      <trkpt lat="43.46344" lon="2.33275">
        <ele>659.40002441406</ele>
        <time>2019-05-05T10:34:22.000Z</time>
      </trkpt>
      <trkpt lat="43.46348" lon="2.33267">
        <ele>660.40002441406</ele>
        <time>2019-05-05T10:34:21.000Z</time>
      </trkpt>
      <trkpt lat="43.46353" lon="2.33257">
        <ele>661.40002441406</ele>
        <time>2019-05-05T10:34:20.000Z</time>
      </trkpt>
      <trkpt lat="43.46359" lon="2.33246">
        <ele>662.40002441406</ele>
        <time>2019-05-05T10:34:19.000Z</time>
      </trkpt>
      <trkpt lat="43.46363" lon="2.33237">
        <ele>663</ele>
        <time>2019-05-05T10:34:18.000Z</time>
      </trkpt>
      <trkpt lat="43.46368" lon="2.33228">
        <ele>663.79998779297</ele>
        <time>2019-05-05T10:34:17.000Z</time>
      </trkpt>
      <trkpt lat="43.46373" lon="2.33219">
        <ele>664.20001220703</ele>
        <time>2019-05-05T10:34:16.000Z</time>
      </trkpt>
      <trkpt lat="43.46377" lon="2.33212">
        <ele>664.59997558594</ele>
        <time>2019-05-05T10:34:15.000Z</time>
      </trkpt>
      <trkpt lat="43.46381" lon="2.33207">
        <ele>665</ele>
        <time>2019-05-05T10:34:14.000Z</time>
      </trkpt>
      <trkpt lat="43.46385" lon="2.33201">
        <ele>665</ele>
        <time>2019-05-05T10:34:13.000Z</time>
      </trkpt>
      <trkpt lat="43.4639" lon="2.33182">
        <ele>665</ele>
        <time>2019-05-05T10:34:09.000Z</time>
      </trkpt>
      <trkpt lat="43.46386" lon="2.3316">
        <ele>665</ele>
        <time>2019-05-05T10:34:03.000Z</time>
      </trkpt>
      <trkpt lat="43.46385" lon="2.33139">
        <ele>665</ele>
        <time>2019-05-05T10:33:58.000Z</time>
      </trkpt>
      <trkpt lat="43.46382" lon="2.33109">
        <ele>665</ele>
        <time>2019-05-05T10:33:53.000Z</time>
      </trkpt>
      <trkpt lat="43.46381" lon="2.33097">
        <ele>665</ele>
        <time>2019-05-05T10:33:51.000Z</time>
      </trkpt>
      <trkpt lat="43.46383" lon="2.33079">
        <ele>665</ele>
        <time>2019-05-05T10:33:48.000Z</time>
      </trkpt>
      <trkpt lat="43.46384" lon="2.33053">
        <ele>665</ele>
        <time>2019-05-05T10:33:43.000Z</time>
      </trkpt>
      <trkpt lat="43.46383" lon="2.33033">
        <ele>665</ele>
        <time>2019-05-05T10:33:38.000Z</time>
      </trkpt>
      <trkpt lat="43.46383" lon="2.33017">
        <ele>665</ele>
        <time>2019-05-05T10:33:34.000Z</time>
      </trkpt>
      <trkpt lat="43.46381" lon="2.33006">
        <ele>665</ele>
        <time>2019-05-05T10:33:31.000Z</time>
      </trkpt>
      <trkpt lat="43.46381" lon="2.33001">
        <ele>665.40002441406</ele>
        <time>2019-05-05T10:33:30.000Z</time>
      </trkpt>
      <trkpt lat="43.46379" lon="2.32995">
        <ele>665.79998779297</ele>
        <time>2019-05-05T10:33:29.000Z</time>
      </trkpt>
      <trkpt lat="43.46378" lon="2.3299">
        <ele>666.20001220703</ele>
        <time>2019-05-05T10:33:28.000Z</time>
      </trkpt>
      <trkpt lat="43.46376" lon="2.32983">
        <ele>666.59997558594</ele>
        <time>2019-05-05T10:33:27.000Z</time>
      </trkpt>
      <trkpt lat="43.46372" lon="2.3297">
        <ele>667</ele>
        <time>2019-05-05T10:33:25.000Z</time>
      </trkpt>
      <trkpt lat="43.4637" lon="2.32964">
        <ele>667</ele>
        <time>2019-05-05T10:33:24.000Z</time>
      </trkpt>
      <trkpt lat="43.46367" lon="2.3295">
        <ele>667</ele>
        <time>2019-05-05T10:33:22.000Z</time>
      </trkpt>
      <trkpt lat="43.46364" lon="2.32935">
        <ele>667</ele>
        <time>2019-05-05T10:33:19.000Z</time>
      </trkpt>
      <trkpt lat="43.46363" lon="2.32932">
        <ele>667.59997558594</ele>
        <time>2019-05-05T10:33:18.000Z</time>
      </trkpt>
      <trkpt lat="43.46362" lon="2.32929">
        <ele>668.40002441406</ele>
        <time>2019-05-05T10:33:17.000Z</time>
      </trkpt>
      <trkpt lat="43.46362" lon="2.32926">
        <ele>668.79998779297</ele>
        <time>2019-05-05T10:33:16.000Z</time>
      </trkpt>
      <trkpt lat="43.46361" lon="2.32915">
        <ele>669.40002441406</ele>
        <time>2019-05-05T10:33:13.000Z</time>
      </trkpt>
      <trkpt lat="43.4636" lon="2.32909">
        <ele>669.40002441406</ele>
        <time>2019-05-05T10:33:11.000Z</time>
      </trkpt>
      <trkpt lat="43.46354" lon="2.32892">
        <ele>669.40002441406</ele>
        <time>2019-05-05T10:33:05.000Z</time>
      </trkpt>
      <trkpt lat="43.46354" lon="2.3289">
        <ele>669.40002441406</ele>
        <time>2019-05-05T10:33:04.000Z</time>
      </trkpt>
      <trkpt lat="43.46352" lon="2.32875">
        <ele>670.59997558594</ele>
        <time>2019-05-05T10:32:56.000Z</time>
      </trkpt>
      <trkpt lat="43.46352" lon="2.32873">
        <ele>671</ele>
        <time>2019-05-05T10:32:55.000Z</time>
      </trkpt>
      <trkpt lat="43.46353" lon="2.32871">
        <ele>671.59997558594</ele>
        <time>2019-05-05T10:32:54.000Z</time>
      </trkpt>
      <trkpt lat="43.46354" lon="2.32863">
        <ele>672.40002441406</ele>
        <time>2019-05-05T10:32:50.000Z</time>
      </trkpt>
      <trkpt lat="43.46355" lon="2.32861">
        <ele>672.79998779297</ele>
        <time>2019-05-05T10:32:49.000Z</time>
      </trkpt>
      <trkpt lat="43.46355" lon="2.32859">
        <ele>673.20001220703</ele>
        <time>2019-05-05T10:32:48.000Z</time>
      </trkpt>
      <trkpt lat="43.4635" lon="2.32828">
        <ele>673.59997558594</ele>
        <time>2019-05-05T10:32:19.000Z</time>
      </trkpt>
      <trkpt lat="43.46348" lon="2.32825">
        <ele>673.59997558594</ele>
        <time>2019-05-05T10:32:17.000Z</time>
      </trkpt>
      <trkpt lat="43.46343" lon="2.32816">
        <ele>673.59997558594</ele>
        <time>2019-05-05T10:32:14.000Z</time>
      </trkpt>
      <trkpt lat="43.4634" lon="2.32812">
        <ele>673.59997558594</ele>
        <time>2019-05-05T10:32:12.000Z</time>
      </trkpt>
      <trkpt lat="43.46339" lon="2.32809">
        <ele>673.59997558594</ele>
        <time>2019-05-05T10:32:11.000Z</time>
      </trkpt>
      <trkpt lat="43.46337" lon="2.32806">
        <ele>673.59997558594</ele>
        <time>2019-05-05T10:32:09.000Z</time>
      </trkpt>
      <trkpt lat="43.46335" lon="2.32804">
        <ele>674</ele>
        <time>2019-05-05T10:32:08.000Z</time>
      </trkpt>
      <trkpt lat="43.46333" lon="2.32801">
        <ele>674.40002441406</ele>
        <time>2019-05-05T10:32:07.000Z</time>
      </trkpt>
      <trkpt lat="43.46332" lon="2.32798">
        <ele>674.79998779297</ele>
        <time>2019-05-05T10:32:06.000Z</time>
      </trkpt>
      <trkpt lat="43.4633" lon="2.32795">
        <ele>675.20001220703</ele>
        <time>2019-05-05T10:32:05.000Z</time>
      </trkpt>
      <trkpt lat="43.46324" lon="2.32781">
        <ele>677.79998779297</ele>
        <time>2019-05-05T10:31:57.000Z</time>
      </trkpt>
      <trkpt lat="43.46324" lon="2.3278">
        <ele>678.20001220703</ele>
        <time>2019-05-05T10:31:56.000Z</time>
      </trkpt>
      <trkpt lat="43.46323" lon="2.32779">
        <ele>678.59997558594</ele>
        <time>2019-05-05T10:31:55.000Z</time>
      </trkpt>
      <trkpt lat="43.46322" lon="2.32777">
        <ele>679</ele>
        <time>2019-05-05T10:31:54.000Z</time>
      </trkpt>
      <trkpt lat="43.4632" lon="2.32773">
        <ele>679.40002441406</ele>
        <time>2019-05-05T10:31:53.000Z</time>
      </trkpt>
      <trkpt lat="43.46318" lon="2.32768">
        <ele>679.79998779297</ele>
        <time>2019-05-05T10:31:51.000Z</time>
      </trkpt>
      <trkpt lat="43.46316" lon="2.32765">
        <ele>680.40002441406</ele>
        <time>2019-05-05T10:31:50.000Z</time>
      </trkpt>
      <trkpt lat="43.46315" lon="2.32763">
        <ele>680.79998779297</ele>
        <time>2019-05-05T10:31:49.000Z</time>
      </trkpt>
      <trkpt lat="43.46313" lon="2.32758">
        <ele>681.20001220703</ele>
        <time>2019-05-05T10:31:48.000Z</time>
      </trkpt>
      <trkpt lat="43.46309" lon="2.32751">
        <ele>682.20001220703</ele>
        <time>2019-05-05T10:31:46.000Z</time>
      </trkpt>
      <trkpt lat="43.46306" lon="2.32741">
        <ele>682.20001220703</ele>
        <time>2019-05-05T10:31:42.000Z</time>
      </trkpt>
      <trkpt lat="43.46305" lon="2.3274">
        <ele>682.59997558594</ele>
        <time>2019-05-05T10:31:41.000Z</time>
      </trkpt>
      <trkpt lat="43.46305" lon="2.32738">
        <ele>683</ele>
        <time>2019-05-05T10:31:40.000Z</time>
      </trkpt>
      <trkpt lat="43.463" lon="2.32724">
        <ele>685.79998779297</ele>
        <time>2019-05-05T10:31:35.000Z</time>
      </trkpt>
      <trkpt lat="43.463" lon="2.32723">
        <ele>686.20001220703</ele>
        <time>2019-05-05T10:31:34.000Z</time>
      </trkpt>
      <trkpt lat="43.46302" lon="2.32718">
        <ele>686.79998779297</ele>
        <time>2019-05-05T10:31:32.000Z</time>
      </trkpt>
      <trkpt lat="43.46303" lon="2.327">
        <ele>691.59997558594</ele>
        <time>2019-05-05T10:31:08.000Z</time>
      </trkpt>
      <trkpt lat="43.46304" lon="2.32698">
        <ele>692.20001220703</ele>
        <time>2019-05-05T10:31:07.000Z</time>
      </trkpt>
      <trkpt lat="43.46305" lon="2.32697">
        <ele>693</ele>
        <time>2019-05-05T10:31:06.000Z</time>
      </trkpt>
      <trkpt lat="43.46305" lon="2.32693">
        <ele>693.59997558594</ele>
        <time>2019-05-05T10:31:05.000Z</time>
      </trkpt>
      <trkpt lat="43.46304" lon="2.32688">
        <ele>694.40002441406</ele>
        <time>2019-05-05T10:31:04.000Z</time>
      </trkpt>
      <trkpt lat="43.46304" lon="2.32683">
        <ele>695</ele>
        <time>2019-05-05T10:31:03.000Z</time>
      </trkpt>
      <trkpt lat="43.46305" lon="2.3268">
        <ele>695.79998779297</ele>
        <time>2019-05-05T10:31:02.000Z</time>
      </trkpt>
      <trkpt lat="43.46306" lon="2.32677">
        <ele>696.40002441406</ele>
        <time>2019-05-05T10:31:01.000Z</time>
      </trkpt>
      <trkpt lat="43.46305" lon="2.32672">
        <ele>697</ele>
        <time>2019-05-05T10:31:00.000Z</time>
      </trkpt>
      <trkpt lat="43.46306" lon="2.32669">
        <ele>697.59997558594</ele>
        <time>2019-05-05T10:30:59.000Z</time>
      </trkpt>
      <trkpt lat="43.46307" lon="2.32667">
        <ele>698.40002441406</ele>
        <time>2019-05-05T10:30:58.000Z</time>
      </trkpt>
      <trkpt lat="43.46308" lon="2.32664">
        <ele>698.79998779297</ele>
        <time>2019-05-05T10:30:57.000Z</time>
      </trkpt>
      <trkpt lat="43.46309" lon="2.32661">
        <ele>699.40002441406</ele>
        <time>2019-05-05T10:30:56.000Z</time>
      </trkpt>
      <trkpt lat="43.4631" lon="2.32656">
        <ele>699.79998779297</ele>
        <time>2019-05-05T10:30:55.000Z</time>
      </trkpt>
      <trkpt lat="43.46312" lon="2.32656">
        <ele>700.40002441406</ele>
        <time>2019-05-05T10:30:54.000Z</time>
      </trkpt>
      <trkpt lat="43.46314" lon="2.32655">
        <ele>700.79998779297</ele>
        <time>2019-05-05T10:30:53.000Z</time>
      </trkpt>
      <trkpt lat="43.46317" lon="2.32653">
        <ele>701.40002441406</ele>
        <time>2019-05-05T10:30:52.000Z</time>
      </trkpt>
      <trkpt lat="43.46318" lon="2.32651">
        <ele>701.79998779297</ele>
        <time>2019-05-05T10:30:51.000Z</time>
      </trkpt>
      <trkpt lat="43.46322" lon="2.32652">
        <ele>702.40002441406</ele>
        <time>2019-05-05T10:30:50.000Z</time>
      </trkpt>
      <trkpt lat="43.46324" lon="2.32652">
        <ele>703</ele>
        <time>2019-05-05T10:30:49.000Z</time>
      </trkpt>
      <trkpt lat="43.46325" lon="2.3265">
        <ele>703.40002441406</ele>
        <time>2019-05-05T10:30:48.000Z</time>
      </trkpt>
      <trkpt lat="43.46327" lon="2.32649">
        <ele>704</ele>
        <time>2019-05-05T10:30:47.000Z</time>
      </trkpt>
      <trkpt lat="43.4633" lon="2.3265">
        <ele>704.59997558594</ele>
        <time>2019-05-05T10:30:46.000Z</time>
      </trkpt>
      <trkpt lat="43.46331" lon="2.3265">
        <ele>705</ele>
        <time>2019-05-05T10:30:45.000Z</time>
      </trkpt>
      <trkpt lat="43.46332" lon="2.3265">
        <ele>705.40002441406</ele>
        <time>2019-05-05T10:30:44.000Z</time>
      </trkpt>
      <trkpt lat="43.46335" lon="2.3265">
        <ele>705.79998779297</ele>
        <time>2019-05-05T10:30:42.000Z</time>
      </trkpt>
      <trkpt lat="43.46336" lon="2.32649">
        <ele>706.40002441406</ele>
        <time>2019-05-05T10:30:41.000Z</time>
      </trkpt>
      <trkpt lat="43.46336" lon="2.32648">
        <ele>706.79998779297</ele>
        <time>2019-05-05T10:30:40.000Z</time>
      </trkpt>
      <trkpt lat="43.46331" lon="2.32644">
        <ele>706.79998779297</ele>
        <time>2019-05-05T10:30:36.000Z</time>
      </trkpt>
      <trkpt lat="43.46331" lon="2.32645">
        <ele>706.79998779297</ele>
        <time>2019-05-05T10:30:35.000Z</time>
      </trkpt>
      <trkpt lat="43.46331" lon="2.32647">
        <ele>707.40002441406</ele>
        <time>2019-05-05T10:30:34.000Z</time>
      </trkpt>
      <trkpt lat="43.46334" lon="2.32646">
        <ele>708.59997558594</ele>
        <time>2019-05-05T10:30:32.000Z</time>
      </trkpt>
      <trkpt lat="43.46336" lon="2.32646">
        <ele>709.20001220703</ele>
        <time>2019-05-05T10:30:31.000Z</time>
      </trkpt>
      <trkpt lat="43.46338" lon="2.32644">
        <ele>709.79998779297</ele>
        <time>2019-05-05T10:30:30.000Z</time>
      </trkpt>
      <trkpt lat="43.46339" lon="2.32643">
        <ele>710.40002441406</ele>
        <time>2019-05-05T10:30:29.000Z</time>
      </trkpt>
      <trkpt lat="43.46341" lon="2.32642">
        <ele>710.79998779297</ele>
        <time>2019-05-05T10:30:28.000Z</time>
      </trkpt>
      <trkpt lat="43.46343" lon="2.32641">
        <ele>711.40002441406</ele>
        <time>2019-05-05T10:30:27.000Z</time>
      </trkpt>
      <trkpt lat="43.46344" lon="2.32639">
        <ele>711.79998779297</ele>
        <time>2019-05-05T10:30:26.000Z</time>
      </trkpt>
      <trkpt lat="43.46345" lon="2.32637">
        <ele>712.20001220703</ele>
        <time>2019-05-05T10:30:25.000Z</time>
      </trkpt>
      <trkpt lat="43.46347" lon="2.32635">
        <ele>713.20001220703</ele>
        <time>2019-05-05T10:30:24.000Z</time>
      </trkpt>
      <trkpt lat="43.46347" lon="2.32632">
        <ele>713.79998779297</ele>
        <time>2019-05-05T10:30:23.000Z</time>
      </trkpt>
      <trkpt lat="43.46348" lon="2.3263">
        <ele>714.40002441406</ele>
        <time>2019-05-05T10:30:22.000Z</time>
      </trkpt>
      <trkpt lat="43.46351" lon="2.32629">
        <ele>715.20001220703</ele>
        <time>2019-05-05T10:30:21.000Z</time>
      </trkpt>
      <trkpt lat="43.46354" lon="2.32626">
        <ele>716</ele>
        <time>2019-05-05T10:30:20.000Z</time>
      </trkpt>
      <trkpt lat="43.46357" lon="2.32623">
        <ele>716.79998779297</ele>
        <time>2019-05-05T10:30:19.000Z</time>
      </trkpt>
      <trkpt lat="43.46358" lon="2.32622">
        <ele>717.59997558594</ele>
        <time>2019-05-05T10:30:18.000Z</time>
      </trkpt>
      <trkpt lat="43.46361" lon="2.3262">
        <ele>718.59997558594</ele>
        <time>2019-05-05T10:30:17.000Z</time>
      </trkpt>
      <trkpt lat="43.46364" lon="2.32618">
        <ele>719.40002441406</ele>
        <time>2019-05-05T10:30:16.000Z</time>
      </trkpt>
      <trkpt lat="43.46366" lon="2.32616">
        <ele>720.20001220703</ele>
        <time>2019-05-05T10:30:15.000Z</time>
      </trkpt>
      <trkpt lat="43.46368" lon="2.32614">
        <ele>721</ele>
        <time>2019-05-05T10:30:14.000Z</time>
      </trkpt>
      <trkpt lat="43.46371" lon="2.32611">
        <ele>722</ele>
        <time>2019-05-05T10:30:13.000Z</time>
      </trkpt>
      <trkpt lat="43.46374" lon="2.32606">
        <ele>722.79998779297</ele>
        <time>2019-05-05T10:30:12.000Z</time>
      </trkpt>
      <trkpt lat="43.46377" lon="2.32602">
        <ele>723.59997558594</ele>
        <time>2019-05-05T10:30:11.000Z</time>
      </trkpt>
      <trkpt lat="43.4638" lon="2.32598">
        <ele>724.20001220703</ele>
        <time>2019-05-05T10:30:10.000Z</time>
      </trkpt>
      <trkpt lat="43.46384" lon="2.32593">
        <ele>724.79998779297</ele>
        <time>2019-05-05T10:30:09.000Z</time>
      </trkpt>
      <trkpt lat="43.46387" lon="2.32588">
        <ele>725.59997558594</ele>
        <time>2019-05-05T10:30:08.000Z</time>
      </trkpt>
      <trkpt lat="43.4639" lon="2.32582">
        <ele>726.20001220703</ele>
        <time>2019-05-05T10:30:07.000Z</time>
      </trkpt>
      <trkpt lat="43.46391" lon="2.32577">
        <ele>726.59997558594</ele>
        <time>2019-05-05T10:30:06.000Z</time>
      </trkpt>
      <trkpt lat="43.46392" lon="2.32572">
        <ele>727</ele>
        <time>2019-05-05T10:30:05.000Z</time>
      </trkpt>
      <trkpt lat="43.46393" lon="2.32567">
        <ele>727.59997558594</ele>
        <time>2019-05-05T10:30:04.000Z</time>
      </trkpt>
      <trkpt lat="43.46393" lon="2.32559">
        <ele>728</ele>
        <time>2019-05-05T10:30:03.000Z</time>
      </trkpt>
      <trkpt lat="43.46395" lon="2.32555">
        <ele>728.40002441406</ele>
        <time>2019-05-05T10:30:02.000Z</time>
      </trkpt>
      <trkpt lat="43.46396" lon="2.32551">
        <ele>728.79998779297</ele>
        <time>2019-05-05T10:30:01.000Z</time>
      </trkpt>
      <trkpt lat="43.46397" lon="2.32547">
        <ele>729.20001220703</ele>
        <time>2019-05-05T10:30:00.000Z</time>
      </trkpt>
      <trkpt lat="43.46398" lon="2.3254">
        <ele>729.59997558594</ele>
        <time>2019-05-05T10:29:58.000Z</time>
      </trkpt>
      <trkpt lat="43.464" lon="2.32537">
        <ele>730.20001220703</ele>
        <time>2019-05-05T10:29:57.000Z</time>
      </trkpt>
      <trkpt lat="43.46402" lon="2.32535">
        <ele>730.59997558594</ele>
        <time>2019-05-05T10:29:56.000Z</time>
      </trkpt>
      <trkpt lat="43.46403" lon="2.32533">
        <ele>731</ele>
        <time>2019-05-05T10:29:55.000Z</time>
      </trkpt>
      <trkpt lat="43.46405" lon="2.32531">
        <ele>731.40002441406</ele>
        <time>2019-05-05T10:29:54.000Z</time>
      </trkpt>
      <trkpt lat="43.46407" lon="2.32519">
        <ele>732</ele>
        <time>2019-05-05T10:29:51.000Z</time>
      </trkpt>
      <trkpt lat="43.46401" lon="2.32496">
        <ele>732</ele>
        <time>2019-05-05T10:29:45.000Z</time>
      </trkpt>
      <trkpt lat="43.464" lon="2.32486">
        <ele>732</ele>
        <time>2019-05-05T10:29:42.000Z</time>
      </trkpt>
      <trkpt lat="43.46398" lon="2.3247">
        <ele>730</ele>
        <time>2019-05-05T10:29:28.000Z</time>
      </trkpt>
      <trkpt lat="43.46398" lon="2.3247">
        <ele>730</ele>
        <time>2019-05-05T10:29:27.000Z</time>
      </trkpt>
      <trkpt lat="43.46392" lon="2.32461">
        <ele>730</ele>
        <time>2019-05-05T10:29:23.000Z</time>
      </trkpt>
      <trkpt lat="43.46377" lon="2.32446">
        <ele>730</ele>
        <time>2019-05-05T10:29:18.000Z</time>
      </trkpt>
      <trkpt lat="43.46374" lon="2.32443">
        <ele>730</ele>
        <time>2019-05-05T10:29:17.000Z</time>
      </trkpt>
      <trkpt lat="43.46372" lon="2.32439">
        <ele>729.59997558594</ele>
        <time>2019-05-05T10:29:16.000Z</time>
      </trkpt>
      <trkpt lat="43.4637" lon="2.32435">
        <ele>729</ele>
        <time>2019-05-05T10:29:15.000Z</time>
      </trkpt>
      <trkpt lat="43.46367" lon="2.32431">
        <ele>728.59997558594</ele>
        <time>2019-05-05T10:29:14.000Z</time>
      </trkpt>
      <trkpt lat="43.46365" lon="2.32428">
        <ele>728.20001220703</ele>
        <time>2019-05-05T10:29:13.000Z</time>
      </trkpt>
      <trkpt lat="43.4636" lon="2.3242">
        <ele>727.79998779297</ele>
        <time>2019-05-05T10:29:11.000Z</time>
      </trkpt>
      <trkpt lat="43.46348" lon="2.324">
        <ele>727.79998779297</ele>
        <time>2019-05-05T10:29:06.000Z</time>
      </trkpt>
      <trkpt lat="43.46336" lon="2.32378">
        <ele>727.79998779297</ele>
        <time>2019-05-05T10:29:01.000Z</time>
      </trkpt>
      <trkpt lat="43.46312" lon="2.32351">
        <ele>727.79998779297</ele>
        <time>2019-05-05T10:28:55.000Z</time>
      </trkpt>
      <trkpt lat="43.46283" lon="2.32318">
        <ele>727.79998779297</ele>
        <time>2019-05-05T10:28:49.000Z</time>
      </trkpt>
      <trkpt lat="43.46258" lon="2.3228">
        <ele>727.79998779297</ele>
        <time>2019-05-05T10:28:44.000Z</time>
      </trkpt>
      <trkpt lat="43.46252" lon="2.3227">
        <ele>727.79998779297</ele>
        <time>2019-05-05T10:28:43.000Z</time>
      </trkpt>
      <trkpt lat="43.46247" lon="2.32262">
        <ele>727.79998779297</ele>
        <time>2019-05-05T10:28:42.000Z</time>
      </trkpt>
      <trkpt lat="43.46243" lon="2.32253">
        <ele>728.20001220703</ele>
        <time>2019-05-05T10:28:41.000Z</time>
      </trkpt>
      <trkpt lat="43.46238" lon="2.32243">
        <ele>728.59997558594</ele>
        <time>2019-05-05T10:28:40.000Z</time>
      </trkpt>
      <trkpt lat="43.46235" lon="2.32234">
        <ele>729</ele>
        <time>2019-05-05T10:28:39.000Z</time>
      </trkpt>
      <trkpt lat="43.46231" lon="2.32225">
        <ele>729.40002441406</ele>
        <time>2019-05-05T10:28:38.000Z</time>
      </trkpt>
      <trkpt lat="43.46228" lon="2.32216">
        <ele>729.79998779297</ele>
        <time>2019-05-05T10:28:37.000Z</time>
      </trkpt>
      <trkpt lat="43.46225" lon="2.32207">
        <ele>730.40002441406</ele>
        <time>2019-05-05T10:28:36.000Z</time>
      </trkpt>
      <trkpt lat="43.46221" lon="2.32197">
        <ele>731</ele>
        <time>2019-05-05T10:28:35.000Z</time>
      </trkpt>
      <trkpt lat="43.46218" lon="2.32188">
        <ele>731.79998779297</ele>
        <time>2019-05-05T10:28:34.000Z</time>
      </trkpt>
      <trkpt lat="43.46213" lon="2.32174">
        <ele>732.40002441406</ele>
        <time>2019-05-05T10:28:33.000Z</time>
      </trkpt>
      <trkpt lat="43.4621" lon="2.32162">
        <ele>733</ele>
        <time>2019-05-05T10:28:32.000Z</time>
      </trkpt>
      <trkpt lat="43.46211" lon="2.32153">
        <ele>733.40002441406</ele>
        <time>2019-05-05T10:28:31.000Z</time>
      </trkpt>
      <trkpt lat="43.46211" lon="2.32142">
        <ele>734</ele>
        <time>2019-05-05T10:28:30.000Z</time>
      </trkpt>
      <trkpt lat="43.46212" lon="2.32133">
        <ele>734.40002441406</ele>
        <time>2019-05-05T10:28:29.000Z</time>
      </trkpt>
      <trkpt lat="43.46212" lon="2.32123">
        <ele>735</ele>
        <time>2019-05-05T10:28:28.000Z</time>
      </trkpt>
      <trkpt lat="43.46213" lon="2.32114">
        <ele>735.59997558594</ele>
        <time>2019-05-05T10:28:27.000Z</time>
      </trkpt>
      <trkpt lat="43.46213" lon="2.32105">
        <ele>736</ele>
        <time>2019-05-05T10:28:26.000Z</time>
      </trkpt>
      <trkpt lat="43.46214" lon="2.32097">
        <ele>736.59997558594</ele>
        <time>2019-05-05T10:28:25.000Z</time>
      </trkpt>
      <trkpt lat="43.46214" lon="2.32088">
        <ele>737.20001220703</ele>
        <time>2019-05-05T10:28:24.000Z</time>
      </trkpt>
      <trkpt lat="43.46213" lon="2.3208">
        <ele>737.59997558594</ele>
        <time>2019-05-05T10:28:23.000Z</time>
      </trkpt>
      <trkpt lat="43.46213" lon="2.32071">
        <ele>738.20001220703</ele>
        <time>2019-05-05T10:28:22.000Z</time>
      </trkpt>
      <trkpt lat="43.46212" lon="2.32063">
        <ele>738.59997558594</ele>
        <time>2019-05-05T10:28:21.000Z</time>
      </trkpt>
      <trkpt lat="43.46211" lon="2.32055">
        <ele>739</ele>
        <time>2019-05-05T10:28:20.000Z</time>
      </trkpt>
      <trkpt lat="43.46206" lon="2.32032">
        <ele>739</ele>
        <time>2019-05-05T10:28:17.000Z</time>
      </trkpt>
      <trkpt lat="43.46204" lon="2.32025">
        <ele>739</ele>
        <time>2019-05-05T10:28:16.000Z</time>
      </trkpt>
      <trkpt lat="43.46201" lon="2.32019">
        <ele>739</ele>
        <time>2019-05-05T10:28:15.000Z</time>
      </trkpt>
      <trkpt lat="43.46197" lon="2.32012">
        <ele>739.59997558594</ele>
        <time>2019-05-05T10:28:14.000Z</time>
      </trkpt>
      <trkpt lat="43.46193" lon="2.32007">
        <ele>740</ele>
        <time>2019-05-05T10:28:13.000Z</time>
      </trkpt>
      <trkpt lat="43.4619" lon="2.32002">
        <ele>740.40002441406</ele>
        <time>2019-05-05T10:28:12.000Z</time>
      </trkpt>
      <trkpt lat="43.46187" lon="2.31996">
        <ele>740.79998779297</ele>
        <time>2019-05-05T10:28:11.000Z</time>
      </trkpt>
      <trkpt lat="43.4618" lon="2.31987">
        <ele>741.40002441406</ele>
        <time>2019-05-05T10:28:09.000Z</time>
      </trkpt>
      <trkpt lat="43.46173" lon="2.31978">
        <ele>741.40002441406</ele>
        <time>2019-05-05T10:28:07.000Z</time>
      </trkpt>
      <trkpt lat="43.46152" lon="2.31954">
        <ele>741.40002441406</ele>
        <time>2019-05-05T10:28:02.000Z</time>
      </trkpt>
      <trkpt lat="43.46146" lon="2.31949">
        <ele>741.79998779297</ele>
        <time>2019-05-05T10:28:01.000Z</time>
      </trkpt>
      <trkpt lat="43.46141" lon="2.31942">
        <ele>742.20001220703</ele>
        <time>2019-05-05T10:28:00.000Z</time>
      </trkpt>
      <trkpt lat="43.46137" lon="2.31938">
        <ele>742.79998779297</ele>
        <time>2019-05-05T10:27:59.000Z</time>
      </trkpt>
      <trkpt lat="43.46133" lon="2.31935">
        <ele>743.20001220703</ele>
        <time>2019-05-05T10:27:58.000Z</time>
      </trkpt>
      <trkpt lat="43.4613" lon="2.31933">
        <ele>743.59997558594</ele>
        <time>2019-05-05T10:27:57.000Z</time>
      </trkpt>
      <trkpt lat="43.46112" lon="2.31923">
        <ele>743.59997558594</ele>
        <time>2019-05-05T10:27:53.000Z</time>
      </trkpt>
      <trkpt lat="43.46107" lon="2.31919">
        <ele>744.20001220703</ele>
        <time>2019-05-05T10:27:52.000Z</time>
      </trkpt>
      <trkpt lat="43.46103" lon="2.31916">
        <ele>744.59997558594</ele>
        <time>2019-05-05T10:27:51.000Z</time>
      </trkpt>
      <trkpt lat="43.461" lon="2.31913">
        <ele>745</ele>
        <time>2019-05-05T10:27:50.000Z</time>
      </trkpt>
      <trkpt lat="43.46096" lon="2.31909">
        <ele>745.40002441406</ele>
        <time>2019-05-05T10:27:49.000Z</time>
      </trkpt>
      <trkpt lat="43.46094" lon="2.31907">
        <ele>746</ele>
        <time>2019-05-05T10:27:48.000Z</time>
      </trkpt>
      <trkpt lat="43.46091" lon="2.31903">
        <ele>746.59997558594</ele>
        <time>2019-05-05T10:27:47.000Z</time>
      </trkpt>
      <trkpt lat="43.46089" lon="2.319">
        <ele>747.20001220703</ele>
        <time>2019-05-05T10:27:46.000Z</time>
      </trkpt>
      <trkpt lat="43.46088" lon="2.31899">
        <ele>747.79998779297</ele>
        <time>2019-05-05T10:27:45.000Z</time>
      </trkpt>
      <trkpt lat="43.46086" lon="2.31896">
        <ele>748.40002441406</ele>
        <time>2019-05-05T10:27:44.000Z</time>
      </trkpt>
      <trkpt lat="43.46084" lon="2.31894">
        <ele>749.20001220703</ele>
        <time>2019-05-05T10:27:43.000Z</time>
      </trkpt>
      <trkpt lat="43.46084" lon="2.31893">
        <ele>749.79998779297</ele>
        <time>2019-05-05T10:27:42.000Z</time>
      </trkpt>
      <trkpt lat="43.46085" lon="2.31889">
        <ele>750.59997558594</ele>
        <time>2019-05-05T10:27:41.000Z</time>
      </trkpt>
      <trkpt lat="43.46087" lon="2.31886">
        <ele>751.40002441406</ele>
        <time>2019-05-05T10:27:40.000Z</time>
      </trkpt>
      <trkpt lat="43.46089" lon="2.31883">
        <ele>752.20001220703</ele>
        <time>2019-05-05T10:27:39.000Z</time>
      </trkpt>
      <trkpt lat="43.46092" lon="2.3188">
        <ele>753</ele>
        <time>2019-05-05T10:27:38.000Z</time>
      </trkpt>
      <trkpt lat="43.46095" lon="2.31878">
        <ele>753.79998779297</ele>
        <time>2019-05-05T10:27:37.000Z</time>
      </trkpt>
      <trkpt lat="43.46098" lon="2.31875">
        <ele>754.59997558594</ele>
        <time>2019-05-05T10:27:36.000Z</time>
      </trkpt>
      <trkpt lat="43.46101" lon="2.3187">
        <ele>755.40002441406</ele>
        <time>2019-05-05T10:27:35.000Z</time>
      </trkpt>
      <trkpt lat="43.46104" lon="2.31865">
        <ele>756.20001220703</ele>
        <time>2019-05-05T10:27:34.000Z</time>
      </trkpt>
      <trkpt lat="43.46107" lon="2.3186">
        <ele>757</ele>
        <time>2019-05-05T10:27:33.000Z</time>
      </trkpt>
      <trkpt lat="43.4611" lon="2.31855">
        <ele>757.79998779297</ele>
        <time>2019-05-05T10:27:32.000Z</time>
      </trkpt>
      <trkpt lat="43.46112" lon="2.31853">
        <ele>758.59997558594</ele>
        <time>2019-05-05T10:27:31.000Z</time>
      </trkpt>
      <trkpt lat="43.46111" lon="2.31849">
        <ele>760</ele>
        <time>2019-05-05T10:27:30.000Z</time>
      </trkpt>
      <trkpt lat="43.46111" lon="2.31845">
        <ele>760.59997558594</ele>
        <time>2019-05-05T10:27:29.000Z</time>
      </trkpt>
      <trkpt lat="43.46113" lon="2.31843">
        <ele>761.20001220703</ele>
        <time>2019-05-05T10:27:28.000Z</time>
      </trkpt>
      <trkpt lat="43.46114" lon="2.31841">
        <ele>761.59997558594</ele>
        <time>2019-05-05T10:27:27.000Z</time>
      </trkpt>
      <trkpt lat="43.46115" lon="2.31838">
        <ele>762</ele>
        <time>2019-05-05T10:27:26.000Z</time>
      </trkpt>
      <trkpt lat="43.46115" lon="2.31833">
        <ele>762.40002441406</ele>
        <time>2019-05-05T10:27:24.000Z</time>
      </trkpt>
      <trkpt lat="43.46115" lon="2.3183">
        <ele>762.40002441406</ele>
        <time>2019-05-05T10:27:23.000Z</time>
      </trkpt>
      <trkpt lat="43.46114" lon="2.31829">
        <ele>762.40002441406</ele>
        <time>2019-05-05T10:27:22.000Z</time>
      </trkpt>
      <trkpt lat="43.46112" lon="2.31827">
        <ele>762.40002441406</ele>
        <time>2019-05-05T10:27:21.000Z</time>
      </trkpt>
      <trkpt lat="43.46109" lon="2.31825">
        <ele>763.20001220703</ele>
        <time>2019-05-05T10:27:20.000Z</time>
      </trkpt>
      <trkpt lat="43.46107" lon="2.31823">
        <ele>764</ele>
        <time>2019-05-05T10:27:19.000Z</time>
      </trkpt>
      <trkpt lat="43.46104" lon="2.31819">
        <ele>764.79998779297</ele>
        <time>2019-05-05T10:27:18.000Z</time>
      </trkpt>
      <trkpt lat="43.46101" lon="2.31817">
        <ele>765.59997558594</ele>
        <time>2019-05-05T10:27:17.000Z</time>
      </trkpt>
      <trkpt lat="43.461" lon="2.31813">
        <ele>766.40002441406</ele>
        <time>2019-05-05T10:27:16.000Z</time>
      </trkpt>
      <trkpt lat="43.46097" lon="2.31808">
        <ele>767.20001220703</ele>
        <time>2019-05-05T10:27:15.000Z</time>
      </trkpt>
      <trkpt lat="43.46096" lon="2.31805">
        <ele>767.79998779297</ele>
        <time>2019-05-05T10:27:14.000Z</time>
      </trkpt>
      <trkpt lat="43.46094" lon="2.31802">
        <ele>768.20001220703</ele>
        <time>2019-05-05T10:27:13.000Z</time>
      </trkpt>
      <trkpt lat="43.46092" lon="2.31799">
        <ele>768.79998779297</ele>
        <time>2019-05-05T10:27:12.000Z</time>
      </trkpt>
      <trkpt lat="43.4609" lon="2.31796">
        <ele>769.20001220703</ele>
        <time>2019-05-05T10:27:11.000Z</time>
      </trkpt>
      <trkpt lat="43.46085" lon="2.3179">
        <ele>769.79998779297</ele>
        <time>2019-05-05T10:27:09.000Z</time>
      </trkpt>
      <trkpt lat="43.46081" lon="2.31784">
        <ele>769.79998779297</ele>
        <time>2019-05-05T10:27:07.000Z</time>
      </trkpt>
      <trkpt lat="43.46079" lon="2.31782">
        <ele>770.20001220703</ele>
        <time>2019-05-05T10:27:06.000Z</time>
      </trkpt>
      <trkpt lat="43.46078" lon="2.31781">
        <ele>771</ele>
        <time>2019-05-05T10:27:05.000Z</time>
      </trkpt>
      <trkpt lat="43.46076" lon="2.3178">
        <ele>771.40002441406</ele>
        <time>2019-05-05T10:27:04.000Z</time>
      </trkpt>
      <trkpt lat="43.46075" lon="2.31774">
        <ele>771.79998779297</ele>
        <time>2019-05-05T10:27:01.000Z</time>
      </trkpt>
      <trkpt lat="43.46075" lon="2.31771">
        <ele>771.79998779297</ele>
        <time>2019-05-05T10:27:00.000Z</time>
      </trkpt>
      <trkpt lat="43.46075" lon="2.31765">
        <ele>771.79998779297</ele>
        <time>2019-05-05T10:26:58.000Z</time>
      </trkpt>
      <trkpt lat="43.46073" lon="2.31759">
        <ele>771.79998779297</ele>
        <time>2019-05-05T10:26:56.000Z</time>
      </trkpt>
      <trkpt lat="43.46062" lon="2.31746">
        <ele>771.79998779297</ele>
        <time>2019-05-05T10:26:50.000Z</time>
      </trkpt>
      <trkpt lat="43.46061" lon="2.31744">
        <ele>772.20001220703</ele>
        <time>2019-05-05T10:26:49.000Z</time>
      </trkpt>
      <trkpt lat="43.46059" lon="2.31742">
        <ele>772.59997558594</ele>
        <time>2019-05-05T10:26:48.000Z</time>
      </trkpt>
      <trkpt lat="43.46056" lon="2.31738">
        <ele>773.20001220703</ele>
        <time>2019-05-05T10:26:47.000Z</time>
      </trkpt>
      <trkpt lat="43.46053" lon="2.31735">
        <ele>773.59997558594</ele>
        <time>2019-05-05T10:26:46.000Z</time>
      </trkpt>
      <trkpt lat="43.46052" lon="2.31732">
        <ele>774</ele>
        <time>2019-05-05T10:26:45.000Z</time>
      </trkpt>
      <trkpt lat="43.46052" lon="2.3173">
        <ele>774.59997558594</ele>
        <time>2019-05-05T10:26:44.000Z</time>
      </trkpt>
      <trkpt lat="43.46051" lon="2.31727">
        <ele>775</ele>
        <time>2019-05-05T10:26:43.000Z</time>
      </trkpt>
      <trkpt lat="43.4605" lon="2.31726">
        <ele>775.40002441406</ele>
        <time>2019-05-05T10:26:42.000Z</time>
      </trkpt>
      <trkpt lat="43.46048" lon="2.31723">
        <ele>776.40002441406</ele>
        <time>2019-05-05T10:26:41.000Z</time>
      </trkpt>
      <trkpt lat="43.46047" lon="2.31721">
        <ele>777.20001220703</ele>
        <time>2019-05-05T10:26:40.000Z</time>
      </trkpt>
      <trkpt lat="43.46046" lon="2.31717">
        <ele>778</ele>
        <time>2019-05-05T10:26:39.000Z</time>
      </trkpt>
      <trkpt lat="43.46044" lon="2.31714">
        <ele>778.79998779297</ele>
        <time>2019-05-05T10:26:38.000Z</time>
      </trkpt>
      <trkpt lat="43.46043" lon="2.31711">
        <ele>779.59997558594</ele>
        <time>2019-05-05T10:26:37.000Z</time>
      </trkpt>
      <trkpt lat="43.46041" lon="2.31706">
        <ele>780.59997558594</ele>
        <time>2019-05-05T10:26:36.000Z</time>
      </trkpt>
      <trkpt lat="43.46038" lon="2.31701">
        <ele>781.40002441406</ele>
        <time>2019-05-05T10:26:35.000Z</time>
      </trkpt>
      <trkpt lat="43.46035" lon="2.31697">
        <ele>782.20001220703</ele>
        <time>2019-05-05T10:26:34.000Z</time>
      </trkpt>
      <trkpt lat="43.46031" lon="2.31693">
        <ele>783</ele>
        <time>2019-05-05T10:26:33.000Z</time>
      </trkpt>
      <trkpt lat="43.46027" lon="2.31688">
        <ele>783.79998779297</ele>
        <time>2019-05-05T10:26:32.000Z</time>
      </trkpt>
      <trkpt lat="43.46024" lon="2.31684">
        <ele>784.59997558594</ele>
        <time>2019-05-05T10:26:31.000Z</time>
      </trkpt>
      <trkpt lat="43.4602" lon="2.31678">
        <ele>785.40002441406</ele>
        <time>2019-05-05T10:26:30.000Z</time>
      </trkpt>
      <trkpt lat="43.46016" lon="2.31672">
        <ele>786.40002441406</ele>
        <time>2019-05-05T10:26:29.000Z</time>
      </trkpt>
      <trkpt lat="43.46012" lon="2.31666">
        <ele>787.20001220703</ele>
        <time>2019-05-05T10:26:28.000Z</time>
      </trkpt>
      <trkpt lat="43.46008" lon="2.31659">
        <ele>788.20001220703</ele>
        <time>2019-05-05T10:26:27.000Z</time>
      </trkpt>
      <trkpt lat="43.46004" lon="2.31651">
        <ele>789.20001220703</ele>
        <time>2019-05-05T10:26:26.000Z</time>
      </trkpt>
      <trkpt lat="43.45999" lon="2.31642">
        <ele>790.20001220703</ele>
        <time>2019-05-05T10:26:25.000Z</time>
      </trkpt>
      <trkpt lat="43.45996" lon="2.31633">
        <ele>791.40002441406</ele>
        <time>2019-05-05T10:26:24.000Z</time>
      </trkpt>
      <trkpt lat="43.45994" lon="2.31625">
        <ele>792.40002441406</ele>
        <time>2019-05-05T10:26:23.000Z</time>
      </trkpt>
      <trkpt lat="43.45991" lon="2.31616">
        <ele>793.40002441406</ele>
        <time>2019-05-05T10:26:22.000Z</time>
      </trkpt>
      <trkpt lat="43.45988" lon="2.31607">
        <ele>794.40002441406</ele>
        <time>2019-05-05T10:26:21.000Z</time>
      </trkpt>
      <trkpt lat="43.45984" lon="2.31596">
        <ele>795.40002441406</ele>
        <time>2019-05-05T10:26:20.000Z</time>
      </trkpt>
      <trkpt lat="43.45981" lon="2.31587">
        <ele>796.20001220703</ele>
        <time>2019-05-05T10:26:19.000Z</time>
      </trkpt>
      <trkpt lat="43.45979" lon="2.3158">
        <ele>797</ele>
        <time>2019-05-05T10:26:18.000Z</time>
      </trkpt>
      <trkpt lat="43.45978" lon="2.31573">
        <ele>797.59997558594</ele>
        <time>2019-05-05T10:26:17.000Z</time>
      </trkpt>
      <trkpt lat="43.45976" lon="2.31566">
        <ele>798.20001220703</ele>
        <time>2019-05-05T10:26:16.000Z</time>
      </trkpt>
      <trkpt lat="43.45975" lon="2.3156">
        <ele>799.20001220703</ele>
        <time>2019-05-05T10:26:15.000Z</time>
      </trkpt>
      <trkpt lat="43.45974" lon="2.31554">
        <ele>799.59997558594</ele>
        <time>2019-05-05T10:26:14.000Z</time>
      </trkpt>
      <trkpt lat="43.45972" lon="2.31535">
        <ele>800</ele>
        <time>2019-05-05T10:26:11.000Z</time>
      </trkpt>
      <trkpt lat="43.4597" lon="2.31522">
        <ele>800</ele>
        <time>2019-05-05T10:26:09.000Z</time>
      </trkpt>
      <trkpt lat="43.45969" lon="2.31516">
        <ele>800.40002441406</ele>
        <time>2019-05-05T10:26:08.000Z</time>
      </trkpt>
      <trkpt lat="43.45968" lon="2.31509">
        <ele>801</ele>
        <time>2019-05-05T10:26:07.000Z</time>
      </trkpt>
      <trkpt lat="43.45967" lon="2.31502">
        <ele>801.40002441406</ele>
        <time>2019-05-05T10:26:06.000Z</time>
      </trkpt>
      <trkpt lat="43.45966" lon="2.31495">
        <ele>801.79998779297</ele>
        <time>2019-05-05T10:26:05.000Z</time>
      </trkpt>
      <trkpt lat="43.45961" lon="2.31461">
        <ele>802.40002441406</ele>
        <time>2019-05-05T10:25:59.000Z</time>
      </trkpt>
      <trkpt lat="43.45958" lon="2.31428">
        <ele>802.40002441406</ele>
        <time>2019-05-05T10:25:54.000Z</time>
      </trkpt>
      <trkpt lat="43.45957" lon="2.31419">
        <ele>802.40002441406</ele>
        <time>2019-05-05T10:25:53.000Z</time>
      </trkpt>
      <trkpt lat="43.45957" lon="2.31411">
        <ele>802.40002441406</ele>
        <time>2019-05-05T10:25:52.000Z</time>
      </trkpt>
      <trkpt lat="43.45957" lon="2.31404">
        <ele>803</ele>
        <time>2019-05-05T10:25:51.000Z</time>
      </trkpt>
      <trkpt lat="43.45958" lon="2.31396">
        <ele>804.59997558594</ele>
        <time>2019-05-05T10:25:50.000Z</time>
      </trkpt>
      <trkpt lat="43.4596" lon="2.31387">
        <ele>805.40002441406</ele>
        <time>2019-05-05T10:25:49.000Z</time>
      </trkpt>
      <trkpt lat="43.45962" lon="2.31378">
        <ele>806.20001220703</ele>
        <time>2019-05-05T10:25:48.000Z</time>
      </trkpt>
      <trkpt lat="43.45966" lon="2.3137">
        <ele>806.79998779297</ele>
        <time>2019-05-05T10:25:47.000Z</time>
      </trkpt>
      <trkpt lat="43.45971" lon="2.31361">
        <ele>807.20001220703</ele>
        <time>2019-05-05T10:25:46.000Z</time>
      </trkpt>
      <trkpt lat="43.45975" lon="2.31352">
        <ele>807.79998779297</ele>
        <time>2019-05-05T10:25:45.000Z</time>
      </trkpt>
      <trkpt lat="43.45979" lon="2.31344">
        <ele>808.20001220703</ele>
        <time>2019-05-05T10:25:44.000Z</time>
      </trkpt>
      <trkpt lat="43.45982" lon="2.31335">
        <ele>808.59997558594</ele>
        <time>2019-05-05T10:25:43.000Z</time>
      </trkpt>
      <trkpt lat="43.45985" lon="2.31328">
        <ele>809</ele>
        <time>2019-05-05T10:25:42.000Z</time>
      </trkpt>
      <trkpt lat="43.45988" lon="2.31319">
        <ele>809.59997558594</ele>
        <time>2019-05-05T10:25:41.000Z</time>
      </trkpt>
      <trkpt lat="43.45991" lon="2.31312">
        <ele>810</ele>
        <time>2019-05-05T10:25:40.000Z</time>
      </trkpt>
      <trkpt lat="43.45997" lon="2.31299">
        <ele>810</ele>
        <time>2019-05-05T10:25:38.000Z</time>
      </trkpt>
      <trkpt lat="43.46004" lon="2.31286">
        <ele>810</ele>
        <time>2019-05-05T10:25:36.000Z</time>
      </trkpt>
      <trkpt lat="43.46007" lon="2.3128">
        <ele>810.40002441406</ele>
        <time>2019-05-05T10:25:35.000Z</time>
      </trkpt>
      <trkpt lat="43.46011" lon="2.31274">
        <ele>810.79998779297</ele>
        <time>2019-05-05T10:25:34.000Z</time>
      </trkpt>
      <trkpt lat="43.46015" lon="2.31268">
        <ele>811.40002441406</ele>
        <time>2019-05-05T10:25:33.000Z</time>
      </trkpt>
      <trkpt lat="43.46018" lon="2.31262">
        <ele>811.79998779297</ele>
        <time>2019-05-05T10:25:32.000Z</time>
      </trkpt>
      <trkpt lat="43.46026" lon="2.31249">
        <ele>812.20001220703</ele>
        <time>2019-05-05T10:25:30.000Z</time>
      </trkpt>
      <trkpt lat="43.46029" lon="2.31242">
        <ele>812.20001220703</ele>
        <time>2019-05-05T10:25:29.000Z</time>
      </trkpt>
      <trkpt lat="43.46037" lon="2.3123">
        <ele>812.20001220703</ele>
        <time>2019-05-05T10:25:27.000Z</time>
      </trkpt>
      <trkpt lat="43.46042" lon="2.31225">
        <ele>812.59997558594</ele>
        <time>2019-05-05T10:25:26.000Z</time>
      </trkpt>
      <trkpt lat="43.46045" lon="2.3122">
        <ele>813.59997558594</ele>
        <time>2019-05-05T10:25:25.000Z</time>
      </trkpt>
      <trkpt lat="43.46048" lon="2.31214">
        <ele>814</ele>
        <time>2019-05-05T10:25:24.000Z</time>
      </trkpt>
      <trkpt lat="43.46051" lon="2.31199">
        <ele>814.40002441406</ele>
        <time>2019-05-05T10:25:22.000Z</time>
      </trkpt>
      <trkpt lat="43.46084" lon="2.31229">
        <ele>875.9</ele>
      </trkpt>
      <trkpt lat="43.46084" lon="2.31228">
        <ele>875.9</ele>
      </trkpt>
      <trkpt lat="43.46103" lon="2.31258">
        <ele>873.9</ele>
      </trkpt>
      <trkpt lat="43.46116" lon="2.31283">
        <ele>872</ele>
      </trkpt>
      <trkpt lat="43.46118" lon="2.31288">
        <ele>871.6</ele>
      </trkpt>
      <trkpt lat="43.46154" lon="2.31363">
        <ele>865.1</ele>
      </trkpt>
      <trkpt lat="43.46161" lon="2.31381">
        <ele>863.7</ele>
      </trkpt>
      <trkpt lat="43.4622" lon="2.31469">
        <ele>857.3</ele>
      </trkpt>
      <trkpt lat="43.46279" lon="2.31543">
        <ele>850.9</ele>
      </trkpt>
      <trkpt lat="43.46286" lon="2.31554">
        <ele>850.1</ele>
      </trkpt>
      <trkpt lat="43.46292" lon="2.3157">
        <ele>849.5</ele>
      </trkpt>
      <trkpt lat="43.46334" lon="2.31687">
        <ele>844.7</ele>
      </trkpt>
      <trkpt lat="43.46343" lon="2.31708">
        <ele>843.1</ele>
      </trkpt>
      <trkpt lat="43.46353" lon="2.31726">
        <ele>841.4</ele>
      </trkpt>
      <trkpt lat="43.46442" lon="2.31871">
        <ele>833.9</ele>
      </trkpt>
      <trkpt lat="43.46473" lon="2.31922">
        <ele>832.1</ele>
      </trkpt>
      <trkpt lat="43.46486" lon="2.31948">
        <ele>830.2</ele>
      </trkpt>
      <trkpt lat="43.46492" lon="2.31968">
        <ele>828.9</ele>
      </trkpt>
      <trkpt lat="43.46532" lon="2.32143">
        <ele>818.4</ele>
      </trkpt>
      <trkpt lat="43.46539" lon="2.32207">
        <ele>815.2</ele>
      </trkpt>
      <trkpt lat="43.46538" lon="2.32228">
        <ele>814.3</ele>
      </trkpt>
      <trkpt lat="43.46534" lon="2.32247">
        <ele>813.5</ele>
      </trkpt>
      <trkpt lat="43.465" lon="2.32314">
        <ele>808.1</ele>
      </trkpt>
      <trkpt lat="43.46473" lon="2.32391">
        <ele>802.3</ele>
      </trkpt>
      <trkpt lat="43.46471" lon="2.32407">
        <ele>800.9</ele>
      </trkpt>
      <trkpt lat="43.46473" lon="2.32424">
        <ele>799.5</ele>
      </trkpt>
      <trkpt lat="43.46482" lon="2.32442">
        <ele>797.9</ele>
      </trkpt>
      <trkpt lat="43.4649" lon="2.32448">
        <ele>797.1</ele>
      </trkpt>
      <trkpt lat="43.46506" lon="2.32456">
        <ele>796</ele>
      </trkpt>
      <trkpt lat="43.46493" lon="2.32455">
        <ele>796.5</ele>
      </trkpt>
      <trkpt lat="43.46506" lon="2.32456">
        <ele>796</ele>
      </trkpt>
      <trkpt lat="43.46521" lon="2.32467">
        <ele>794.6</ele>
      </trkpt>
      <trkpt lat="43.46541" lon="2.32485">
        <ele>792.6</ele>
      </trkpt>
      <trkpt lat="43.46547" lon="2.32485">
        <ele>792.4</ele>
      </trkpt>
      <trkpt lat="43.46554" lon="2.32495">
        <ele>791.4</ele>
      </trkpt>
      <trkpt lat="43.4656" lon="2.32507">
        <ele>790.2</ele>
      </trkpt>
      <trkpt lat="43.46563" lon="2.32523">
        <ele>788.7</ele>
      </trkpt>
      <trkpt lat="43.46568" lon="2.32566">
        <ele>784.7</ele>
      </trkpt>
      <trkpt lat="43.46583" lon="2.32674">
        <ele>782.6</ele>
      </trkpt>
      <trkpt lat="43.46585" lon="2.32724">
        <ele>780.5</ele>
      </trkpt>
      <trkpt lat="43.46584" lon="2.3275">
        <ele>779.1</ele>
      </trkpt>
      <trkpt lat="43.4658" lon="2.32779">
        <ele>778.1</ele>
      </trkpt>
      <trkpt lat="43.46573" lon="2.3281">
        <ele>776.3</ele>
      </trkpt>
      <trkpt lat="43.46559" lon="2.32857">
        <ele>773.7</ele>
      </trkpt>
      <trkpt lat="43.46485" lon="2.33043">
        <ele>756.9</ele>
      </trkpt>
      <trkpt lat="43.46482" lon="2.33058">
        <ele>756.2</ele>
      </trkpt>
      <trkpt lat="43.46471" lon="2.33147">
        <ele>752.9</ele>
      </trkpt>
      <trkpt lat="43.46472" lon="2.33173">
        <ele>752.4</ele>
      </trkpt>
      <trkpt lat="43.46474" lon="2.33183">
        <ele>751.8</ele>
      </trkpt>
      <trkpt lat="43.46479" lon="2.33193">
        <ele>752.1</ele>
      </trkpt>
      <trkpt lat="43.46498" lon="2.33219">
        <ele>754.2</ele>
      </trkpt>
      <trkpt lat="43.46505" lon="2.33236">
        <ele>753.3</ele>
      </trkpt>
      <trkpt lat="43.46515" lon="2.33265">
        <ele>751.6</ele>
      </trkpt>
      <trkpt lat="43.46517" lon="2.33277">
        <ele>750.6</ele>
      </trkpt>
      <trkpt lat="43.46517" lon="2.33289">
        <ele>749.1</ele>
      </trkpt>
      <trkpt lat="43.465" lon="2.33376">
        <ele>738</ele>
      </trkpt>
      <trkpt lat="43.46496" lon="2.33385">
        <ele>737.5</ele>
      </trkpt>
      <trkpt lat="43.46494" lon="2.33391">
        <ele>737.3</ele>
      </trkpt>
      <trkpt lat="43.46478" lon="2.33422">
        <ele>736.5</ele>
      </trkpt>
      <trkpt lat="43.46471" lon="2.33429">
        <ele>736.3</ele>
      </trkpt>
      <trkpt lat="43.4646" lon="2.33434">
        <ele>736</ele>
      </trkpt>
      <trkpt lat="43.46423" lon="2.3344">
        <ele>735.2</ele>
      </trkpt>
      <trkpt lat="43.46415" lon="2.33445">
        <ele>735</ele>
      </trkpt>
      <trkpt lat="43.4641" lon="2.33452">
        <ele>734.8</ele>
      </trkpt>
      <trkpt lat="43.46408" lon="2.33455">
        <ele>734.7</ele>
      </trkpt>
      <trkpt lat="43.46404" lon="2.33467">
        <ele>734.6</ele>
      </trkpt>
      <trkpt lat="43.46404" lon="2.33487">
        <ele>734.6</ele>
      </trkpt>
      <trkpt lat="43.46409" lon="2.3351">
        <ele>734.4</ele>
      </trkpt>
      <trkpt lat="43.46419" lon="2.33546">
        <ele>733.4</ele>
      </trkpt>
      <trkpt lat="43.46429" lon="2.33568">
        <ele>733.1</ele>
      </trkpt>
      <trkpt lat="43.46438" lon="2.33584">
        <ele>733</ele>
      </trkpt>
      <trkpt lat="43.46451" lon="2.33603">
        <ele>732.9</ele>
      </trkpt>
      <trkpt lat="43.46512" lon="2.33674">
        <ele>729.3</ele>
      </trkpt>
      <trkpt lat="43.46568" lon="2.33735">
        <ele>724.3</ele>
      </trkpt>
      <trkpt lat="43.46584" lon="2.33755">
        <ele>722.8</ele>
      </trkpt>
      <trkpt lat="43.46591" lon="2.33763">
        <ele>722.9</ele>
      </trkpt>
      <trkpt lat="43.46603" lon="2.33778">
        <ele>723</ele>
      </trkpt>
      <trkpt lat="43.46611" lon="2.33789">
        <ele>723</ele>
      </trkpt>
      <trkpt lat="43.46616" lon="2.33803">
        <ele>722.6</ele>
      </trkpt>
      <trkpt lat="43.46618" lon="2.33818">
        <ele>721.8</ele>
      </trkpt>
      <trkpt lat="43.46618" lon="2.33833">
        <ele>720.9</ele>
      </trkpt>
      <trkpt lat="43.46617" lon="2.33873">
        <ele>720.2</ele>
      </trkpt>
      <trkpt lat="43.46615" lon="2.33888">
        <ele>719.8</ele>
      </trkpt>
      <trkpt lat="43.46609" lon="2.33904">
        <ele>719</ele>
      </trkpt>
      <trkpt lat="43.46596" lon="2.3393">
        <ele>716.8</ele>
      </trkpt>
      <trkpt lat="43.46586" lon="2.3395">
        <ele>714.1</ele>
      </trkpt>
      <trkpt lat="43.46582" lon="2.33962">
        <ele>712.5</ele>
      </trkpt>
      <trkpt lat="43.46581" lon="2.33973">
        <ele>711.4</ele>
      </trkpt>
      <trkpt lat="43.46583" lon="2.33984">
        <ele>710.5</ele>
      </trkpt>
      <trkpt lat="43.46592" lon="2.34007">
        <ele>709.5</ele>
      </trkpt>
      <trkpt lat="43.46596" lon="2.34019">
        <ele>709.1</ele>
      </trkpt>
      <trkpt lat="43.46597" lon="2.3403">
        <ele>708.3</ele>
      </trkpt>
      <trkpt lat="43.46595" lon="2.34044">
        <ele>706.8</ele>
      </trkpt>
      <trkpt lat="43.46593" lon="2.34057">
        <ele>705.4</ele>
      </trkpt>
      <trkpt lat="43.46585" lon="2.34082">
        <ele>701.5</ele>
      </trkpt>
      <trkpt lat="43.46567" lon="2.34131">
        <ele>697.4</ele>
      </trkpt>
      <trkpt lat="43.46563" lon="2.34139">
        <ele>696.7</ele>
      </trkpt>
      <trkpt lat="43.46532" lon="2.34202">
        <ele>692.5</ele>
      </trkpt>
      <trkpt lat="43.46518" lon="2.34202">
        <ele>627</ele>
        <time>2019-05-05T10:44:27.000Z</time>
      </trkpt>
      <trkpt lat="43.46518" lon="2.34202">
        <ele>627</ele>
        <time>2019-05-05T10:44:26.000Z</time>
      </trkpt>
      <trkpt lat="43.46522" lon="2.34192">
        <ele>627</ele>
        <time>2019-05-05T10:44:12.000Z</time>
      </trkpt>
      <trkpt lat="43.46519" lon="2.34182">
        <ele>627</ele>
        <time>2019-05-05T10:44:07.000Z</time>
      </trkpt>
      <trkpt lat="43.46514" lon="2.34163">
        <ele>627</ele>
        <time>2019-05-05T10:44:02.000Z</time>
      </trkpt>
      <trkpt lat="43.46508" lon="2.34148">
        <ele>627</ele>
        <time>2019-05-05T10:43:57.000Z</time>
      </trkpt>
      <trkpt lat="43.46504" lon="2.34136">
        <ele>627</ele>
        <time>2019-05-05T10:43:53.000Z</time>
      </trkpt>
      <trkpt lat="43.46502" lon="2.34132">
        <ele>627</ele>
        <time>2019-05-05T10:43:51.000Z</time>
      </trkpt>
      <trkpt lat="43.465" lon="2.34123">
        <ele>627</ele>
        <time>2019-05-05T10:43:47.000Z</time>
      </trkpt>
      <trkpt lat="43.465" lon="2.3412">
        <ele>627</ele>
        <time>2019-05-05T10:43:46.000Z</time>
      </trkpt>
      <trkpt lat="43.46501" lon="2.34118">
        <ele>627</ele>
        <time>2019-05-05T10:43:45.000Z</time>
      </trkpt>
      <trkpt lat="43.465" lon="2.34116">
        <ele>626.59997558594</ele>
        <time>2019-05-05T10:43:44.000Z</time>
      </trkpt>
      <trkpt lat="43.46498" lon="2.34114">
        <ele>626.20001220703</ele>
        <time>2019-05-05T10:43:43.000Z</time>
      </trkpt>
      <trkpt lat="43.46497" lon="2.34113">
        <ele>625.79998779297</ele>
        <time>2019-05-05T10:43:42.000Z</time>
      </trkpt>
      <trkpt lat="43.46496" lon="2.34112">
        <ele>625.40002441406</ele>
        <time>2019-05-05T10:43:41.000Z</time>
      </trkpt>
      <trkpt lat="43.46488" lon="2.34109">
        <ele>625</ele>
        <time>2019-05-05T10:43:37.000Z</time>
      </trkpt>
      <trkpt lat="43.46483" lon="2.34109">
        <ele>625</ele>
        <time>2019-05-05T10:43:35.000Z</time>
      </trkpt>
      <trkpt lat="43.46476" lon="2.34111">
        <ele>625</ele>
        <time>2019-05-05T10:43:31.000Z</time>
      </trkpt>
      <trkpt lat="43.46463" lon="2.34113">
        <ele>625</ele>
        <time>2019-05-05T10:43:25.000Z</time>
      </trkpt>
      <trkpt lat="43.46461" lon="2.34115">
        <ele>625</ele>
        <time>2019-05-05T10:43:24.000Z</time>
      </trkpt>
      <trkpt lat="43.46455" lon="2.34116">
        <ele>625</ele>
        <time>2019-05-05T10:43:21.000Z</time>
      </trkpt>
      <trkpt lat="43.46453" lon="2.34116">
        <ele>624.59997558594</ele>
        <time>2019-05-05T10:43:20.000Z</time>
      </trkpt>
      <trkpt lat="43.46451" lon="2.34117">
        <ele>624.20001220703</ele>
        <time>2019-05-05T10:43:19.000Z</time>
      </trkpt>
      <trkpt lat="43.46449" lon="2.34117">
        <ele>623.79998779297</ele>
        <time>2019-05-05T10:43:18.000Z</time>
      </trkpt>
      <trkpt lat="43.46447" lon="2.34117">
        <ele>623.40002441406</ele>
        <time>2019-05-05T10:43:17.000Z</time>
      </trkpt>
      <trkpt lat="43.46441" lon="2.34115">
        <ele>623</ele>
        <time>2019-05-05T10:43:15.000Z</time>
      </trkpt>
      <trkpt lat="43.46426" lon="2.34112">
        <ele>623</ele>
        <time>2019-05-05T10:43:10.000Z</time>
      </trkpt>
    </trkseg>
  </trk>
</gpx>